Time,TemperatureF,DewpointF,PressureIn,WindDirection,WindDirectionDegrees,WindSpeedMPH,WindSpeedGustMPH,Humidity,HourlyPrecipIn,Conditions,Clouds,dailyrainin,SoftwareType,DateUTC
2013-01-12 00:01:00,45.3,44.0,29.87,South,170,0.0,0.0,95,0.00,,,0.76,Wunderground v.1.15,2013-01-12 05:01:00,
2013-01-12 00:03:00,45.3,44.0,29.87,South,170,0.0,0.0,95,0.00,,,0.76,Wunderground v.1.15,2013-01-12 05:03:00,
2013-01-12 00:04:00,45.3,44.0,29.87,SSE,149,0.0,0.0,95,0.00,,,0.76,Wunderground v.1.15,2013-01-12 05:04:00,
2013-01-12 00:07:00,45.2,43.9,29.87,SSE,156,0.0,0.0,95,0.00,,,0.76,Wunderground v.1.15,2013-01-12 05:07:00,
2013-01-12 00:08:00,45.2,43.9,29.87,SSE,156,0.0,0.0,95,0.00,,,0.76,Wunderground v.1.15,2013-01-12 05:08:00,
2013-01-12 00:09:00,45.2,43.9,29.87,SSE,156,0.0,0.0,95,0.00,,,0.76,Wunderground v.1.15,2013-01-12 05:09:00,
2013-01-12 00:11:00,45.1,43.8,29.87,SW,229,0.0,0.0,95,0.00,,,0.76,Wunderground v.1.15,2013-01-12 05:11:00,
2013-01-12 00:13:00,45.1,43.8,29.86,SSE,167,0.0,0.0,95,0.00,,,0.76,Wunderground v.1.15,2013-01-12 05:13:00,
2013-01-12 00:17:00,45.1,43.8,29.85,South,169,0.0,0.0,95,0.00,,,0.76,Wunderground v.1.15,2013-01-12 05:17:00,
2013-01-12 00:20:00,44.9,43.6,29.85,South,174,1.0,1.0,95,0.00,,,0.76,Wunderground v.1.15,2013-01-12 05:20:00,
2013-01-12 00:21:00,44.9,43.6,29.85,South,174,0.0,1.0,95,0.00,,,0.76,Wunderground v.1.15,2013-01-12 05:21:00,
2013-01-12 00:22:00,44.9,43.6,29.85,West,271,0.0,1.0,95,0.00,,,0.76,Wunderground v.1.15,2013-01-12 05:22:00,
2013-01-12 00:23:00,44.9,43.6,29.85,West,271,0.0,1.0,95,0.00,,,0.76,Wunderground v.1.15,2013-01-12 05:23:00,
2013-01-12 00:25:00,44.8,43.5,29.85,West,269,0.0,1.0,95,0.00,,,0.76,Wunderground v.1.15,2013-01-12 05:25:00,
2013-01-12 00:28:00,44.7,43.4,29.85,SW,231,0.0,1.0,95,0.00,,,0.00,Wunderground v.1.15,2013-01-12 05:28:00,
2013-01-12 00:29:00,44.7,43.4,29.85,WSW,256,1.0,1.0,95,0.00,,,0.00,Wunderground v.1.15,2013-01-12 05:29:00,
2013-01-12 00:32:00,44.7,43.6,29.86,SW,233,1.0,1.0,96,0.00,,,0.00,Wunderground v.1.15,2013-01-12 05:32:00,
2013-01-12 00:34:00,44.8,43.7,29.86,WSW,255,1.0,1.0,96,0.00,,,0.00,Wunderground v.1.15,2013-01-12 05:34:00,
2013-01-12 00:37:00,44.9,43.8,29.86,SSW,204,0.0,1.0,96,0.00,,,0.00,Wunderground v.1.15,2013-01-12 05:37:00,
2013-01-12 00:39:00,45.1,44.0,29.86,WSW,248,0.0,1.0,96,0.00,,,0.00,Wunderground v.1.15,2013-01-12 05:39:00,
2013-01-12 00:41:00,45.2,44.1,29.86,SW,236,1.0,1.0,96,0.00,,,0.00,Wunderground v.1.15,2013-01-12 05:41:00,
2013-01-12 00:43:00,45.3,44.2,29.86,SSW,203,0.0,1.0,96,0.00,,,0.00,Wunderground v.1.15,2013-01-12 05:43:00,
2013-01-12 00:44:00,45.3,44.2,29.86,SW,225,1.0,1.0,96,0.00,,,0.00,Wunderground v.1.15,2013-01-12 05:44:00,
2013-01-12 00:45:00,45.4,44.6,29.86,SW,234,0.0,1.0,97,0.00,,,0.00,Wunderground v.1.15,2013-01-12 05:45:00,
2013-01-12 00:47:00,45.4,44.3,29.86,SW,229,0.0,1.0,96,0.00,,,0.00,Wunderground v.1.15,2013-01-12 05:47:00,
2013-01-12 00:50:00,45.4,44.3,29.86,SW,221,0.0,1.0,96,0.00,,,0.00,Wunderground v.1.15,2013-01-12 05:50:00,
2013-01-12 00:52:00,45.4,44.3,29.86,South,190,0.0,1.0,96,0.00,,,0.00,Wunderground v.1.15,2013-01-12 05:52:00,
2013-01-12 00:53:00,45.4,44.3,29.86,WSW,247,2.0,2.0,96,0.00,,,0.00,Wunderground v.1.15,2013-01-12 05:53:00,
2013-01-12 00:55:00,45.4,44.3,29.86,South,184,0.0,2.0,96,0.00,,,0.00,Wunderground v.1.15,2013-01-12 05:55:00,
2013-01-12 00:56:00,45.5,44.4,29.85,West,262,0.0,2.0,96,0.00,,,0.00,Wunderground v.1.15,2013-01-12 05:56:00,
2013-01-12 00:58:00,45.4,44.3,29.85,WSW,239,1.0,2.0,96,0.00,,,0.00,Wunderground v.1.15,2013-01-12 05:58:00,
2013-01-12 01:01:00,45.4,44.3,29.85,SE,145,1.0,1.0,96,0.00,,,0.00,Wunderground v.1.15,2013-01-12 06:01:00,
2013-01-12 01:04:00,45.4,44.3,29.85,WSW,252,3.0,3.0,96,0.00,,,0.00,Wunderground v.1.15,2013-01-12 06:04:00,
2013-01-12 01:05:00,45.4,44.3,29.85,South,172,0.0,3.0,96,0.00,,,0.00,Wunderground v.1.15,2013-01-12 06:05:00,
2013-01-12 01:07:00,45.4,44.3,29.85,SSW,211,0.0,3.0,96,0.00,,,0.00,Wunderground v.1.15,2013-01-12 06:07:00,
2013-01-12 01:08:00,45.4,44.3,29.85,WSW,243,0.0,3.0,96,0.00,,,0.00,Wunderground v.1.15,2013-01-12 06:08:00,
2013-01-12 01:10:00,45.4,44.3,29.85,WSW,246,0.0,0.0,96,0.00,,,0.00,Wunderground v.1.15,2013-01-12 06:10:00,
2013-01-12 01:11:00,45.4,44.3,29.85,WSW,246,0.0,0.0,96,0.00,,,0.00,Wunderground v.1.15,2013-01-12 06:11:00,
2013-01-12 01:12:00,45.4,44.3,29.85,WSW,239,0.0,0.0,96,0.00,,,0.00,Wunderground v.1.15,2013-01-12 06:12:00,
2013-01-12 01:17:00,45.3,44.2,29.85,SW,231,0.0,0.0,96,0.00,,,0.00,Wunderground v.1.15,2013-01-12 06:17:00,
2013-01-12 01:18:00,45.3,44.2,29.85,SW,220,0.0,0.0,96,0.00,,,0.00,Wunderground v.1.15,2013-01-12 06:18:00,
2013-01-12 01:19:00,45.2,44.1,29.84,South,184,0.0,0.0,96,0.00,,,0.00,Wunderground v.1.15,2013-01-12 06:19:00,
2013-01-12 01:23:00,45.1,44.0,29.85,South,169,0.0,0.0,96,0.00,,,0.00,Wunderground v.1.15,2013-01-12 06:23:00,
2013-01-12 01:24:00,45.1,44.0,29.85,South,169,0.0,0.0,96,0.00,,,0.00,Wunderground v.1.15,2013-01-12 06:24:00,
2013-01-12 01:27:00,45.1,44.0,29.85,SE,145,0.0,0.0,96,0.00,,,0.00,Wunderground v.1.15,2013-01-12 06:27:00,
2013-01-12 01:29:00,45.1,44.0,29.85,SW,231,0.0,0.0,96,0.00,,,0.00,Wunderground v.1.15,2013-01-12 06:29:00,
2013-01-12 01:30:00,45.1,44.0,29.85,SW,231,0.0,0.0,96,0.00,,,0.00,Wunderground v.1.15,2013-01-12 06:30:00,
2013-01-12 01:35:00,45.0,43.9,29.85,West,262,0.0,1.0,96,0.00,,,0.00,Wunderground v.1.15,2013-01-12 06:35:00,
2013-01-12 01:37:00,45.0,43.9,29.85,SW,221,0.0,1.0,96,0.00,,,0.00,Wunderground v.1.15,2013-01-12 06:37:00,
2013-01-12 01:40:00,44.9,43.8,29.85,SW,221,0.0,0.0,96,0.00,,,0.00,Wunderground v.1.15,2013-01-12 06:40:00,
2013-01-12 01:41:00,44.9,43.8,29.85,WSW,246,1.0,1.0,96,0.00,,,0.00,Wunderground v.1.15,2013-01-12 06:41:00,
2013-01-12 01:42:00,44.9,43.8,29.85,SSW,204,2.0,2.0,96,0.00,,,0.00,Wunderground v.1.15,2013-01-12 06:42:00,
2013-01-12 01:46:00,44.9,43.8,29.85,WSW,253,1.0,2.0,96,0.00,,,0.00,Wunderground v.1.15,2013-01-12 06:46:00,
2013-01-12 01:47:00,44.9,43.8,29.85,SW,226,0.0,2.0,96,0.00,,,0.00,Wunderground v.1.15,2013-01-12 06:47:00,
2013-01-12 01:50:00,44.9,43.8,29.85,SW,226,0.0,0.0,96,0.00,,,0.00,Wunderground v.1.15,2013-01-12 06:50:00,
2013-01-12 01:54:00,44.9,43.8,29.85,WSW,240,0.0,1.0,96,0.00,,,0.00,Wunderground v.1.15,2013-01-12 06:54:00,
2013-01-12 01:57:00,44.9,43.8,29.84,SW,229,0.0,1.0,96,0.00,,,0.00,Wunderground v.1.15,2013-01-12 06:57:00,
2013-01-12 01:58:00,44.8,43.7,29.84,SW,228,0.0,1.0,96,0.00,,,0.00,Wunderground v.1.15,2013-01-12 06:58:00,
2013-01-12 01:59:00,44.9,43.8,29.84,SW,228,0.0,1.0,96,0.00,,,0.00,Wunderground v.1.15,2013-01-12 06:59:00,
2013-01-12 02:01:00,44.8,43.7,29.84,SSW,194,0.0,0.0,96,0.00,,,0.00,Wunderground v.1.15,2013-01-12 07:01:00,
2013-01-12 02:02:00,44.8,43.7,29.84,SW,236,0.0,0.0,96,0.00,,,0.00,Wunderground v.1.15,2013-01-12 07:02:00,
2013-01-12 02:03:00,44.8,43.7,29.84,WSW,239,1.0,1.0,96,0.00,,,0.00,Wunderground v.1.15,2013-01-12 07:03:00,
2013-01-12 02:04:00,44.8,43.7,29.84,WSW,253,0.0,2.0,96,0.00,,,0.00,Wunderground v.1.15,2013-01-12 07:04:00,
2013-01-12 02:06:00,44.9,44.1,29.84,WSW,257,0.0,2.0,97,0.00,,,0.00,Wunderground v.1.15,2013-01-12 07:06:00,
2013-01-12 02:07:00,44.8,44.0,29.84,WSW,257,0.0,2.0,97,0.00,,,0.00,Wunderground v.1.15,2013-01-12 07:07:00,
2013-01-12 02:08:00,44.8,44.0,29.84,WSW,257,0.0,2.0,97,0.00,,,0.00,Wunderground v.1.15,2013-01-12 07:08:00,
2013-01-12 02:09:00,44.8,44.0,29.84,WSW,257,0.0,2.0,97,0.00,,,0.00,Wunderground v.1.15,2013-01-12 07:09:00,
2013-01-12 02:12:00,44.9,44.1,29.84,SW,231,0.0,2.0,97,0.00,,,0.00,Wunderground v.1.15,2013-01-12 07:12:00,
2013-01-12 02:13:00,44.9,44.1,29.84,WSW,246,1.0,2.0,97,0.00,,,0.00,Wunderground v.1.15,2013-01-12 07:13:00,
2013-01-12 02:14:00,44.9,44.1,29.85,West,266,0.0,2.0,97,0.00,,,0.00,Wunderground v.1.15,2013-01-12 07:14:00,
2013-01-12 02:17:00,44.9,44.1,29.85,SW,229,1.0,2.0,97,0.00,,,0.00,Wunderground v.1.15,2013-01-12 07:17:00,
2013-01-12 02:18:00,44.9,44.1,29.84,SE,125,0.0,2.0,97,0.00,,,0.00,Wunderground v.1.15,2013-01-12 07:18:00,
2013-01-12 02:19:00,44.9,44.1,29.84,SE,126,0.0,2.0,97,0.00,,,0.00,Wunderground v.1.15,2013-01-12 07:19:00,
2013-01-12 02:22:00,44.8,44.0,29.85,SW,214,1.0,1.0,97,0.00,,,0.00,Wunderground v.1.15,2013-01-12 07:22:00,
2013-01-12 02:23:00,44.8,44.0,29.85,SSW,209,0.0,3.0,97,0.00,,,0.00,Wunderground v.1.15,2013-01-12 07:23:00,
2013-01-12 02:24:00,44.9,44.1,29.85,SSW,208,0.0,3.0,97,0.00,,,0.00,Wunderground v.1.15,2013-01-12 07:24:00,
2013-01-12 02:27:00,44.8,44.0,29.85,SW,221,0.0,3.0,97,0.00,,,0.00,Wunderground v.1.15,2013-01-12 07:27:00,
2013-01-12 02:28:00,44.8,44.0,29.85,SW,226,0.0,3.0,97,0.00,,,0.00,Wunderground v.1.15,2013-01-12 07:28:00,
2013-01-12 02:29:00,44.8,44.0,29.85,SSW,208,0.0,3.0,97,0.00,,,0.00,Wunderground v.1.15,2013-01-12 07:29:00,
2013-01-12 02:32:00,44.8,44.0,29.85,WSW,239,1.0,2.0,97,0.00,,,0.00,Wunderground v.1.15,2013-01-12 07:32:00,
2013-01-12 02:33:00,44.8,44.0,29.85,WSW,238,1.0,2.0,97,0.00,,,0.00,Wunderground v.1.15,2013-01-12 07:33:00,
2013-01-12 02:34:00,44.8,44.0,29.85,SSE,148,0.0,2.0,97,0.00,,,0.00,Wunderground v.1.15,2013-01-12 07:34:00,
2013-01-12 02:37:00,44.8,44.0,29.85,SW,236,0.0,2.0,97,0.00,,,0.00,Wunderground v.1.15,2013-01-12 07:37:00,
2013-01-12 02:38:00,44.8,44.0,29.85,SW,236,0.0,2.0,97,0.00,,,0.00,Wunderground v.1.15,2013-01-12 07:38:00,
2013-01-12 02:39:00,44.8,44.0,29.86,SSE,154,2.0,2.0,97,0.00,,,0.00,Wunderground v.1.15,2013-01-12 07:39:00,
2013-01-12 02:43:00,44.8,44.0,29.86,WSW,251,0.0,3.0,97,0.00,,,0.00,Wunderground v.1.15,2013-01-12 07:43:00,
2013-01-12 02:44:00,44.8,44.0,29.86,WSW,243,1.0,3.0,97,0.00,,,0.00,Wunderground v.1.15,2013-01-12 07:44:00,
2013-01-12 02:48:00,44.8,44.0,29.86,WSW,238,0.0,3.0,97,0.00,,,0.00,Wunderground v.1.15,2013-01-12 07:48:00,
2013-01-12 02:49:00,44.8,44.0,29.86,SSE,149,0.0,3.0,97,0.00,,,0.00,Wunderground v.1.15,2013-01-12 07:49:00,
2013-01-12 02:53:00,44.8,44.0,29.86,WSW,245,0.0,2.0,97,0.00,,,0.00,Wunderground v.1.15,2013-01-12 07:53:00,
2013-01-12 02:54:00,44.8,44.0,29.86,WSW,245,0.0,2.0,97,0.00,,,0.00,Wunderground v.1.15,2013-01-12 07:54:00,
2013-01-12 02:58:00,44.9,44.1,29.87,West,281,1.0,4.0,97,0.00,,,0.00,Wunderground v.1.15,2013-01-12 07:58:00,
2013-01-12 02:59:00,44.9,44.1,29.87,SE,139,0.0,4.0,97,0.00,,,0.00,Wunderground v.1.15,2013-01-12 07:59:00,
2013-01-12 03:03:00,44.9,44.1,29.87,SW,236,2.0,5.0,97,0.00,,,0.00,Wunderground v.1.15,2013-01-12 08:03:00,
2013-01-12 03:04:00,44.9,44.1,29.87,SW,229,0.0,5.0,97,0.00,,,0.00,Wunderground v.1.15,2013-01-12 08:04:00,
2013-01-12 03:05:00,44.9,44.1,29.87,SW,224,1.0,5.0,97,0.00,,,0.00,Wunderground v.1.15,2013-01-12 08:05:00,
2013-01-12 03:08:00,44.9,44.1,29.87,WSW,239,3.0,5.0,97,0.00,,,0.00,Wunderground v.1.15,2013-01-12 08:08:00,
2013-01-12 03:09:00,44.9,44.1,29.87,SSE,166,1.0,5.0,97,0.00,,,0.00,Wunderground v.1.15,2013-01-12 08:09:00,
2013-01-12 03:10:00,45.0,44.2,29.87,SW,234,1.0,1.0,97,0.00,,,0.00,Wunderground v.1.15,2013-01-12 08:10:00,
2013-01-12 03:14:00,45.1,44.3,29.87,WSW,249,0.0,5.0,97,0.00,,,0.00,Wunderground v.1.15,2013-01-12 08:14:00,
2013-01-12 03:15:00,45.1,44.3,29.87,WSW,249,0.0,5.0,97,0.00,,,0.00,Wunderground v.1.15,2013-01-12 08:15:00,
2013-01-12 03:19:00,45.1,44.3,29.88,SSE,165,0.0,5.0,97,0.00,,,0.00,Wunderground v.1.15,2013-01-12 08:19:00,
2013-01-12 03:20:00,45.1,44.3,29.88,WSW,240,1.0,1.0,97,0.00,,,0.00,Wunderground v.1.15,2013-01-12 08:20:00,
2013-01-12 03:24:00,45.2,44.4,29.88,WSW,252,3.0,6.0,97,0.00,,,0.00,Wunderground v.1.15,2013-01-12 08:24:00,
2013-01-12 03:25:00,45.3,44.5,29.88,WSW,256,2.0,6.0,97,0.00,,,0.00,Wunderground v.1.15,2013-01-12 08:25:00,
2013-01-12 03:29:00,45.4,44.6,29.88,WSW,252,2.0,6.0,97,0.00,,,0.00,Wunderground v.1.15,2013-01-12 08:29:00,
2013-01-12 03:30:00,45.4,44.6,29.88,WSW,256,1.0,3.0,97,0.00,,,0.00,Wunderground v.1.15,2013-01-12 08:30:00,
2013-01-12 03:34:00,45.5,44.7,29.88,WSW,249,1.0,3.0,97,0.00,,,0.00,Wunderground v.1.15,2013-01-12 08:34:00,
2013-01-12 03:35:00,45.5,44.7,29.88,WSW,249,0.0,3.0,97,0.00,,,0.00,Wunderground v.1.15,2013-01-12 08:35:00,
2013-01-12 03:36:00,45.4,44.6,29.88,WSW,249,0.0,3.0,97,0.00,,,0.00,Wunderground v.1.15,2013-01-12 08:36:00,
2013-01-12 03:40:00,45.4,44.6,29.88,WSW,255,1.0,1.0,97,0.00,,,0.00,Wunderground v.1.15,2013-01-12 08:40:00,
2013-01-12 03:41:00,45.4,44.6,29.87,SSW,208,0.0,2.0,97,0.00,,,0.00,Wunderground v.1.15,2013-01-12 08:41:00,
2013-01-12 03:45:00,45.4,44.6,29.88,WSW,255,1.0,4.0,97,0.00,,,0.00,Wunderground v.1.15,2013-01-12 08:45:00,
2013-01-12 03:46:00,45.4,44.6,29.88,WSW,243,0.0,4.0,97,0.00,,,0.00,Wunderground v.1.15,2013-01-12 08:46:00,
2013-01-12 03:51:00,45.3,44.2,29.87,WSW,252,0.0,1.0,96,0.00,,,0.00,Wunderground v.1.15,2013-01-12 08:51:00,
2013-01-12 03:56:00,45.3,44.2,29.88,SW,221,0.0,3.0,96,0.00,,,0.00,Wunderground v.1.15,2013-01-12 08:56:00,
2013-01-12 03:57:00,45.3,44.2,29.88,SW,233,0.0,3.0,96,0.00,,,0.00,Wunderground v.1.15,2013-01-12 08:57:00,
2013-01-12 04:01:00,45.2,44.1,29.88,SW,236,1.0,1.0,96,0.00,,,0.00,Wunderground v.1.15,2013-01-12 09:01:00,
2013-01-12 04:02:00,45.3,44.2,29.88,WSW,240,0.0,2.0,96,0.00,,,0.00,Wunderground v.1.15,2013-01-12 09:02:00,
2013-01-12 04:06:00,45.2,44.1,29.87,SE,143,0.0,3.0,96,0.00,,,0.00,Wunderground v.1.15,2013-01-12 09:06:00,
2013-01-12 04:07:00,45.2,44.1,29.87,SE,143,0.0,3.0,96,0.00,,,0.00,Wunderground v.1.15,2013-01-12 09:07:00,
2013-01-12 04:11:00,45.3,44.5,29.87,WSW,243,0.0,3.0,97,0.00,,,0.00,Wunderground v.1.15,2013-01-12 09:11:00,
2013-01-12 04:12:00,45.3,44.5,29.87,WSW,241,0.0,3.0,97,0.00,,,0.00,Wunderground v.1.15,2013-01-12 09:12:00,
2013-01-12 04:16:00,45.3,44.2,29.86,WSW,241,0.0,3.0,96,0.00,,,0.00,Wunderground v.1.15,2013-01-12 09:16:00,
2013-01-12 04:17:00,45.3,44.2,29.86,WSW,252,1.0,3.0,96,0.00,,,0.00,Wunderground v.1.15,2013-01-12 09:17:00,
2013-01-12 04:21:00,45.3,44.2,29.87,WSW,239,0.0,1.0,96,0.00,,,0.00,Wunderground v.1.15,2013-01-12 09:21:00,
2013-01-12 04:22:00,45.3,44.2,29.87,WSW,239,0.0,1.0,96,0.00,,,0.00,Wunderground v.1.15,2013-01-12 09:22:00,
2013-01-12 04:23:00,45.3,44.2,29.87,SE,141,0.0,1.0,96,0.00,,,0.00,Wunderground v.1.15,2013-01-12 09:23:00,
2013-01-12 04:26:00,45.2,44.1,29.87,WSW,246,0.0,3.0,96,0.00,,,0.00,Wunderground v.1.15,2013-01-12 09:26:00,
2013-01-12 04:27:00,45.2,44.1,29.87,WSW,243,1.0,3.0,96,0.00,,,0.00,Wunderground v.1.15,2013-01-12 09:27:00,
2013-01-12 04:28:00,45.2,44.1,29.87,WSW,252,1.0,3.0,96,0.00,,,0.00,Wunderground v.1.15,2013-01-12 09:28:00,
2013-01-12 04:31:00,45.1,44.0,29.87,West,274,0.0,2.0,96,0.00,,,0.00,Wunderground v.1.15,2013-01-12 09:31:00,
2013-01-12 04:32:00,45.1,44.0,29.87,West,262,0.0,2.0,96,0.00,,,0.00,Wunderground v.1.15,2013-01-12 09:32:00,
2013-01-12 04:33:00,45.1,44.0,29.87,West,262,0.0,2.0,96,0.00,,,0.00,Wunderground v.1.15,2013-01-12 09:33:00,
2013-01-12 04:36:00,45.0,43.9,29.86,WSW,246,0.0,2.0,96,0.00,,,0.00,Wunderground v.1.15,2013-01-12 09:36:00,
2013-01-12 04:37:00,45.0,43.9,29.86,SW,225,0.0,2.0,96,0.00,,,0.00,Wunderground v.1.15,2013-01-12 09:37:00,
2013-01-12 04:38:00,45.0,43.9,29.86,WSW,246,0.0,2.0,96,0.00,,,0.00,Wunderground v.1.15,2013-01-12 09:38:00,
2013-01-12 04:42:00,45.1,44.0,29.86,SSW,196,0.0,1.0,96,0.00,,,0.00,Wunderground v.1.15,2013-01-12 09:42:00,
2013-01-12 04:44:00,45.0,43.9,29.86,SW,218,0.0,1.0,96,0.00,,,0.00,Wunderground v.1.15,2013-01-12 09:44:00,
2013-01-12 04:47:00,45.0,43.9,29.86,SW,221,0.0,1.0,96,0.00,,,0.00,Wunderground v.1.15,2013-01-12 09:47:00,
2013-01-12 04:48:00,45.0,43.9,29.86,WSW,246,4.0,4.0,96,0.00,,,0.00,Wunderground v.1.15,2013-01-12 09:48:00,
2013-01-12 04:49:00,45.0,43.9,29.86,WSW,243,0.0,4.0,96,0.00,,,0.00,Wunderground v.1.15,2013-01-12 09:49:00,
2013-01-12 04:52:00,45.1,44.0,29.86,WSW,253,0.0,2.0,96,0.00,,,0.00,Wunderground v.1.15,2013-01-12 09:52:00,
2013-01-12 04:53:00,45.1,44.0,29.86,WSW,253,0.0,2.0,96,0.00,,,0.00,Wunderground v.1.15,2013-01-12 09:53:00,
2013-01-12 04:55:00,45.0,43.9,29.86,WSW,246,0.0,2.0,96,0.00,,,0.00,Wunderground v.1.15,2013-01-12 09:55:00,
2013-01-12 04:57:00,45.0,43.9,29.86,WSW,246,1.0,2.0,96,0.00,,,0.00,Wunderground v.1.15,2013-01-12 09:57:00,
2013-01-12 04:58:00,45.0,43.9,29.86,WSW,256,0.0,2.0,96,0.00,,,0.00,Wunderground v.1.15,2013-01-12 09:58:00,
2013-01-12 05:00:00,45.1,44.0,29.86,West,270,2.0,2.0,96,0.00,,,0.00,Wunderground v.1.15,2013-01-12 10:00:00,
2013-01-12 05:02:00,45.1,44.3,29.86,West,267,2.0,3.0,97,0.00,,,0.00,Wunderground v.1.15,2013-01-12 10:02:00,
2013-01-12 05:03:00,45.1,44.3,29.86,WSW,255,3.0,4.0,97,0.00,,,0.00,Wunderground v.1.15,2013-01-12 10:03:00,
2013-01-12 05:05:00,45.2,44.1,29.86,SSE,163,2.0,4.0,96,0.00,,,0.00,Wunderground v.1.15,2013-01-12 10:05:00,
2013-01-12 05:07:00,45.2,44.1,29.86,West,264,1.0,4.0,96,0.00,,,0.00,Wunderground v.1.15,2013-01-12 10:07:00,
2013-01-12 05:08:00,45.2,44.1,29.86,West,263,1.0,4.0,96,0.00,,,0.00,Wunderground v.1.15,2013-01-12 10:08:00,
2013-01-12 05:11:00,45.1,44.0,29.87,West,262,0.0,4.0,96,0.00,,,0.00,Wunderground v.1.15,2013-01-12 10:11:00,
2013-01-12 05:12:00,45.1,44.0,29.86,SE,136,1.0,4.0,96,0.00,,,0.00,Wunderground v.1.15,2013-01-12 10:12:00,
2013-01-12 05:13:00,45.1,44.0,29.86,SSE,148,0.0,4.0,96,0.00,,,0.00,Wunderground v.1.15,2013-01-12 10:13:00,
2013-01-12 05:16:00,45.1,44.0,29.86,WSW,243,1.0,4.0,96,0.00,,,0.00,Wunderground v.1.15,2013-01-12 10:16:00,
2013-01-12 05:17:00,45.1,44.0,29.86,West,264,0.0,4.0,96,0.00,,,0.00,Wunderground v.1.15,2013-01-12 10:17:00,
2013-01-12 05:18:00,45.1,44.0,29.86,WSW,253,1.0,4.0,96,0.00,,,0.00,Wunderground v.1.15,2013-01-12 10:18:00,
2013-01-12 05:21:00,45.2,44.4,29.86,WSW,246,1.0,4.0,97,0.00,,,0.00,Wunderground v.1.15,2013-01-12 10:21:00,
2013-01-12 05:22:00,45.3,44.5,29.85,West,263,1.0,4.0,97,0.00,,,0.00,Wunderground v.1.15,2013-01-12 10:22:00,
2013-01-12 05:23:00,45.3,44.5,29.85,SSW,198,0.0,4.0,97,0.00,,,0.00,Wunderground v.1.15,2013-01-12 10:23:00,
2013-01-12 05:26:00,45.4,44.3,29.85,WSW,252,1.0,4.0,96,0.00,,,0.00,Wunderground v.1.15,2013-01-12 10:26:00,
2013-01-12 05:28:00,45.3,44.2,29.85,WSW,255,2.0,4.0,96,0.00,,,0.00,Wunderground v.1.15,2013-01-12 10:28:00,
2013-01-12 05:31:00,45.4,44.3,29.86,WSW,246,0.0,3.0,96,0.00,,,0.00,Wunderground v.1.15,2013-01-12 10:31:00,
2013-01-12 05:33:00,45.5,44.4,29.86,SW,236,2.0,6.0,96,0.00,,,0.00,Wunderground v.1.15,2013-01-12 10:33:00,
2013-01-12 05:34:00,45.5,44.4,29.86,WSW,245,1.0,6.0,96,0.00,,,0.00,Wunderground v.1.15,2013-01-12 10:34:00,
2013-01-12 05:36:00,45.6,44.5,29.86,WSW,246,2.0,6.0,96,0.00,,,0.00,Wunderground v.1.15,2013-01-12 10:36:00,
2013-01-12 05:38:00,45.6,44.5,29.87,WSW,246,1.0,6.0,96,0.00,,,0.00,Wunderground v.1.15,2013-01-12 10:38:00,
2013-01-12 05:39:00,45.6,44.5,29.86,WSW,243,1.0,6.0,96,0.00,,,0.00,Wunderground v.1.15,2013-01-12 10:39:00,
2013-01-12 05:41:00,45.8,44.7,29.87,SW,233,2.0,6.0,96,0.00,,,0.00,Wunderground v.1.15,2013-01-12 10:41:00,
2013-01-12 05:43:00,45.9,44.8,29.87,WSW,249,3.0,6.0,96,0.00,,,0.00,Wunderground v.1.15,2013-01-12 10:43:00,
2013-01-12 05:44:00,45.9,44.8,29.87,WSW,243,2.0,6.0,96,0.00,,,0.00,Wunderground v.1.15,2013-01-12 10:44:00,
2013-01-12 05:45:00,46.0,44.9,29.87,SW,236,2.0,6.0,96,0.00,,,0.00,Wunderground v.1.15,2013-01-12 10:45:00,
2013-01-12 05:46:00,46.0,44.6,29.88,WSW,253,2.0,6.0,95,0.00,,,0.00,Wunderground v.1.15,2013-01-12 10:46:00,
2013-01-12 05:48:00,46.0,44.6,29.88,WSW,240,1.0,6.0,95,0.00,,,0.00,Wunderground v.1.15,2013-01-12 10:48:00,
2013-01-12 05:50:00,46.0,44.6,29.87,WSW,240,1.0,2.0,95,0.00,,,0.00,Wunderground v.1.15,2013-01-12 10:50:00,
2013-01-12 05:51:00,46.0,44.6,29.87,WSW,250,0.0,2.0,95,0.00,,,0.00,Wunderground v.1.15,2013-01-12 10:51:00,
2013-01-12 05:53:00,46.0,44.6,29.87,SSE,165,0.0,2.0,95,0.00,,,0.00,Wunderground v.1.15,2013-01-12 10:53:00,
2013-01-12 05:55:00,45.9,44.5,29.87,WSW,240,0.0,2.0,95,0.00,,,0.00,Wunderground v.1.15,2013-01-12 10:55:00,
2013-01-12 05:56:00,45.9,44.5,29.87,WSW,239,2.0,4.0,95,0.00,,,0.00,Wunderground v.1.15,2013-01-12 10:56:00,
2013-01-12 05:58:00,45.8,44.4,29.86,SW,217,1.0,4.0,95,0.00,,,0.00,Wunderground v.1.15,2013-01-12 10:58:00,
2013-01-12 06:00:00,45.8,44.4,29.86,SW,224,0.0,1.0,95,0.00,,,0.00,Wunderground v.1.15,2013-01-12 11:00:00,
2013-01-12 06:01:00,45.7,44.1,29.86,SW,224,0.0,1.0,94,0.00,,,0.00,Wunderground v.1.15,2013-01-12 11:01:00,
2013-01-12 06:03:00,45.7,44.1,29.86,SW,236,0.0,4.0,94,0.00,,,0.00,Wunderground v.1.15,2013-01-12 11:03:00,
2013-01-12 06:05:00,45.6,44.0,29.86,SSE,148,0.0,4.0,94,0.00,,,0.00,Wunderground v.1.15,2013-01-12 11:05:00,
2013-01-12 06:06:00,45.6,44.0,29.86,SSE,148,0.0,4.0,94,0.00,,,0.00,Wunderground v.1.15,2013-01-12 11:06:00,
2013-01-12 06:08:00,45.4,43.8,29.87,South,181,1.0,4.0,94,0.00,,,0.00,Wunderground v.1.15,2013-01-12 11:08:00,
2013-01-12 06:10:00,45.3,43.7,29.87,SE,143,0.0,1.0,94,0.00,,,0.00,Wunderground v.1.15,2013-01-12 11:10:00,
2013-01-12 06:11:00,45.3,43.7,29.87,SE,142,0.0,1.0,94,0.00,,,0.00,Wunderground v.1.15,2013-01-12 11:11:00,
2013-01-12 06:13:00,45.2,43.6,29.87,West,259,0.0,1.0,94,0.00,,,0.00,Wunderground v.1.15,2013-01-12 11:13:00,
2013-01-12 06:15:00,45.1,43.8,29.88,WSW,239,0.0,1.0,95,0.00,,,0.00,Wunderground v.1.15,2013-01-12 11:15:00,
2013-01-12 06:16:00,45.1,43.8,29.88,SSW,204,0.0,1.0,95,0.00,,,0.00,Wunderground v.1.15,2013-01-12 11:16:00,
2013-01-12 06:18:00,45.1,43.8,29.88,WSW,249,1.0,1.0,95,0.00,,,0.00,Wunderground v.1.15,2013-01-12 11:18:00,
2013-01-12 06:21:00,45.1,43.8,29.88,West,264,1.0,1.0,95,0.00,,,0.00,Wunderground v.1.15,2013-01-12 11:21:00,
2013-01-12 06:23:00,45.0,43.7,29.88,WSW,253,1.0,2.0,95,0.00,,,0.00,Wunderground v.1.15,2013-01-12 11:23:00,
2013-01-12 06:26:00,44.9,43.6,29.88,SE,146,0.0,2.0,95,0.00,,,0.00,Wunderground v.1.15,2013-01-12 11:26:00,
2013-01-12 06:27:00,44.9,43.6,29.88,SSE,152,0.0,2.0,95,0.00,,,0.00,Wunderground v.1.15,2013-01-12 11:27:00,
2013-01-12 06:28:00,44.9,43.6,29.88,SSE,163,0.0,2.0,95,0.00,,,0.00,Wunderground v.1.15,2013-01-12 11:28:00,
2013-01-12 06:31:00,44.7,43.4,29.87,SW,226,0.0,1.0,95,0.00,,,0.00,Wunderground v.1.15,2013-01-12 11:31:00,
2013-01-12 06:32:00,44.7,43.4,29.87,SW,228,0.0,1.0,95,0.00,,,0.00,Wunderground v.1.15,2013-01-12 11:32:00,
2013-01-12 06:34:00,44.7,43.4,29.87,SW,221,0.0,2.0,95,0.00,,,0.00,Wunderground v.1.15,2013-01-12 11:34:00,
2013-01-12 06:36:00,44.6,43.3,29.87,SW,235,0.0,2.0,95,0.00,,,0.00,Wunderground v.1.15,2013-01-12 11:36:00,
2013-01-12 06:37:00,44.6,43.3,29.87,South,186,0.0,2.0,95,0.00,,,0.00,Wunderground v.1.15,2013-01-12 11:37:00,
2013-01-12 06:39:00,44.5,43.2,29.88,WSW,246,0.0,2.0,95,0.00,,,0.00,Wunderground v.1.15,2013-01-12 11:39:00,
2013-01-12 06:41:00,44.5,43.2,29.88,SSE,152,0.0,1.0,95,0.00,,,0.00,Wunderground v.1.15,2013-01-12 11:41:00,
2013-01-12 06:42:00,44.4,43.1,29.88,SSE,151,0.0,1.0,95,0.00,,,0.00,Wunderground v.1.15,2013-01-12 11:42:00,
2013-01-12 06:44:00,44.4,43.1,29.88,SSE,153,0.0,1.0,95,0.00,,,0.00,Wunderground v.1.15,2013-01-12 11:44:00,
2013-01-12 06:46:00,44.3,43.0,29.88,WSW,246,0.0,1.0,95,0.00,,,0.00,Wunderground v.1.15,2013-01-12 11:46:00,
2013-01-12 06:47:00,44.3,43.0,29.89,WSW,246,0.0,1.0,95,0.00,,,0.00,Wunderground v.1.15,2013-01-12 11:47:00,
2013-01-12 06:49:00,44.2,42.9,29.89,WSW,253,0.0,1.0,95,0.00,,,0.00,Wunderground v.1.15,2013-01-12 11:49:00,
2013-01-12 06:51:00,44.1,42.8,29.89,WSW,253,0.0,1.0,95,0.00,,,0.00,Wunderground v.1.15,2013-01-12 11:51:00,
2013-01-12 06:52:00,44.1,42.8,29.89,WSW,253,0.0,1.0,95,0.00,,,0.00,Wunderground v.1.15,2013-01-12 11:52:00,
2013-01-12 06:54:00,44.0,42.7,29.89,SSW,198,0.0,1.0,95,0.00,,,0.00,Wunderground v.1.15,2013-01-12 11:54:00,
2013-01-12 06:56:00,44.0,42.7,29.89,WSW,246,0.0,1.0,95,0.00,,,0.00,Wunderground v.1.15,2013-01-12 11:56:00,
2013-01-12 06:57:00,44.0,42.7,29.89,WSW,246,0.0,1.0,95,0.00,,,0.00,Wunderground v.1.15,2013-01-12 11:57:00,
2013-01-12 07:00:00,44.0,42.7,29.89,SSW,194,0.0,0.0,95,0.00,,,0.00,Wunderground v.1.15,2013-01-12 12:00:00,
2013-01-12 07:02:00,44.0,42.9,29.89,SSW,196,0.0,0.0,96,0.00,,,0.00,Wunderground v.1.15,2013-01-12 12:02:00,
2013-01-12 07:05:00,43.9,42.8,29.89,SE,134,0.0,1.0,96,0.00,,,0.00,Wunderground v.1.15,2013-01-12 12:05:00,
2013-01-12 07:07:00,43.9,42.8,29.89,SW,231,0.0,3.0,96,0.00,,,0.00,Wunderground v.1.15,2013-01-12 12:07:00,
2013-01-12 07:10:00,43.9,42.8,29.89,SW,231,0.0,0.0,96,0.00,,,0.00,Wunderground v.1.15,2013-01-12 12:10:00,
2013-01-12 07:12:00,43.8,42.7,29.90,SW,231,0.0,0.0,96,0.00,,,0.00,Wunderground v.1.15,2013-01-12 12:12:00,
2013-01-12 07:13:00,43.8,42.7,29.90,SSW,211,2.0,2.0,96,0.00,,,0.00,Wunderground v.1.15,2013-01-12 12:13:00,
2013-01-12 07:15:00,43.8,42.7,29.90,WSW,238,0.0,2.0,96,0.00,,,0.00,Wunderground v.1.15,2013-01-12 12:15:00,
2013-01-12 07:17:00,43.8,42.7,29.90,WSW,238,0.0,2.0,96,0.00,,,0.00,Wunderground v.1.15,2013-01-12 12:17:00,
2013-01-12 07:18:00,43.8,42.7,29.90,WSW,239,0.0,2.0,96,0.00,,,0.00,Wunderground v.1.15,2013-01-12 12:18:00,
2013-01-12 07:20:00,43.9,42.8,29.90,WSW,239,0.0,0.0,96,0.00,,,0.00,Wunderground v.1.15,2013-01-12 12:20:00,
2013-01-12 07:22:00,43.9,42.8,29.89,SW,236,1.0,3.0,96,0.00,,,0.00,Wunderground v.1.15,2013-01-12 12:22:00,
2013-01-12 07:23:00,43.9,42.8,29.89,SW,236,0.0,3.0,96,0.00,,,0.00,Wunderground v.1.15,2013-01-12 12:23:00,
2013-01-12 07:25:00,43.9,42.8,29.89,WSW,252,0.0,4.0,96,0.00,,,0.00,Wunderground v.1.15,2013-01-12 12:25:00,
2013-01-12 07:27:00,43.9,42.8,29.89,WSW,239,0.0,4.0,96,0.00,,,0.00,Wunderground v.1.15,2013-01-12 12:27:00,
2013-01-12 07:28:00,43.9,42.8,29.89,WSW,239,0.0,4.0,96,0.00,,,0.00,Wunderground v.1.15,2013-01-12 12:28:00,
2013-01-12 07:30:00,43.9,42.8,29.89,South,172,0.0,1.0,96,0.00,,,0.00,Wunderground v.1.15,2013-01-12 12:30:00,
2013-01-12 07:32:00,43.9,42.8,29.89,South,172,0.0,1.0,96,0.00,,,0.00,Wunderground v.1.15,2013-01-12 12:32:00,
2013-01-12 07:33:00,43.9,42.8,29.89,South,172,0.0,1.0,96,0.00,,,0.00,Wunderground v.1.15,2013-01-12 12:33:00,
2013-01-12 07:34:00,43.9,42.8,29.90,South,172,0.0,1.0,96,0.00,,,0.00,Wunderground v.1.15,2013-01-12 12:34:00,
2013-01-12 07:35:00,43.9,42.8,29.90,SW,233,0.0,3.0,96,0.00,,,0.00,Wunderground v.1.15,2013-01-12 12:35:00,
2013-01-12 07:37:00,43.9,42.8,29.90,WSW,239,0.0,3.0,96,0.00,,,0.00,Wunderground v.1.15,2013-01-12 12:37:00,
2013-01-12 07:38:00,43.9,42.8,29.90,WSW,239,1.0,3.0,96,0.00,,,0.00,Wunderground v.1.15,2013-01-12 12:38:00,
2013-01-12 07:39:00,43.9,42.8,29.90,SW,231,0.0,3.0,96,0.00,,,0.00,Wunderground v.1.15,2013-01-12 12:39:00,
2013-01-12 07:41:00,43.9,42.8,29.90,NNW,340,0.0,3.0,96,0.00,,,0.00,Wunderground v.1.15,2013-01-12 12:41:00,
2013-01-12 07:42:00,43.9,42.8,29.90,SE,136,0.0,3.0,96,0.00,,,0.00,Wunderground v.1.15,2013-01-12 12:42:00,
2013-01-12 07:43:00,43.9,42.8,29.90,SE,136,0.0,3.0,96,0.00,,,0.00,Wunderground v.1.15,2013-01-12 12:43:00,
2013-01-12 07:44:00,43.9,42.8,29.90,South,169,0.0,3.0,96,0.00,,,0.00,Wunderground v.1.15,2013-01-12 12:44:00,
2013-01-12 07:46:00,43.9,42.8,29.90,South,169,0.0,3.0,96,0.00,,,0.00,Wunderground v.1.15,2013-01-12 12:46:00,
2013-01-12 07:48:00,43.8,42.7,29.90,SW,214,0.0,3.0,96,0.00,,,0.00,Wunderground v.1.15,2013-01-12 12:48:00,
2013-01-12 07:49:00,43.8,42.7,29.90,SW,214,0.0,3.0,96,0.00,,,0.00,Wunderground v.1.15,2013-01-12 12:49:00,
2013-01-12 07:51:00,43.8,42.7,29.90,WSW,251,1.0,1.0,96,0.00,,,0.00,Wunderground v.1.15,2013-01-12 12:51:00,
2013-01-12 07:53:00,43.9,42.8,29.90,SW,236,2.0,2.0,96,0.00,,,0.00,Wunderground v.1.15,2013-01-12 12:53:00,
2013-01-12 07:54:00,43.9,42.8,29.90,West,263,0.0,2.0,96,0.00,,,0.00,Wunderground v.1.15,2013-01-12 12:54:00,
2013-01-12 07:56:00,43.9,42.8,29.90,SSE,153,0.0,2.0,96,0.00,,,0.00,Wunderground v.1.15,2013-01-12 12:56:00,
2013-01-12 07:58:00,43.9,42.8,29.90,WSW,248,1.0,2.0,96,0.00,,,0.00,Wunderground v.1.15,2013-01-12 12:58:00,
2013-01-12 07:59:00,44.0,42.9,29.90,SW,214,0.0,2.0,96,0.00,,,0.00,Wunderground v.1.15,2013-01-12 12:59:00,
2013-01-12 08:01:00,44.0,42.9,29.90,South,191,0.0,2.0,96,0.00,,,0.00,Wunderground v.1.15,2013-01-12 13:01:00,
2013-01-12 08:03:00,44.0,42.9,29.90,South,191,0.0,2.0,96,0.00,,,0.00,Wunderground v.1.15,2013-01-12 13:03:00,
2013-01-12 08:04:00,44.0,42.9,29.90,South,191,0.0,2.0,96,0.00,,,0.00,Wunderground v.1.15,2013-01-12 13:04:00,
2013-01-12 08:07:00,43.9,42.8,29.90,SW,233,0.0,2.0,96,0.00,,,0.00,Wunderground v.1.15,2013-01-12 13:07:00,
2013-01-12 08:08:00,44.0,42.9,29.90,ESE,114,0.0,2.0,96,0.00,,,0.00,Wunderground v.1.15,2013-01-12 13:08:00,
2013-01-12 08:09:00,44.0,42.9,29.90,ESE,114,0.0,2.0,96,0.00,,,0.00,Wunderground v.1.15,2013-01-12 13:09:00,
2013-01-12 08:12:00,44.1,43.0,29.90,SSE,160,1.0,2.0,96,0.00,,,0.00,Wunderground v.1.15,2013-01-12 13:12:00,
2013-01-12 08:14:00,44.1,43.0,29.90,SW,235,0.0,2.0,96,0.00,,,0.00,Wunderground v.1.15,2013-01-12 13:14:00,
2013-01-12 08:17:00,44.2,43.1,29.91,WNW,283,1.0,2.0,96,0.00,,,0.00,Wunderground v.1.15,2013-01-12 13:17:00,
2013-01-12 08:19:00,44.2,43.1,29.91,WSW,242,1.0,3.0,96,0.00,,,0.00,Wunderground v.1.15,2013-01-12 13:19:00,
2013-01-12 08:20:00,44.3,43.2,29.92,WSW,243,3.0,3.0,96,0.00,,,0.00,Wunderground v.1.15,2013-01-12 13:20:00,
2013-01-12 08:22:00,44.4,43.6,29.92,WSW,240,4.0,5.0,97,0.00,,,0.00,Wunderground v.1.15,2013-01-12 13:22:00,
2013-01-12 08:24:00,44.5,43.4,29.91,SW,228,0.0,5.0,96,0.00,,,0.00,Wunderground v.1.15,2013-01-12 13:24:00,
2013-01-12 08:25:00,44.5,43.4,29.91,SSE,165,0.0,5.0,96,0.00,,,0.00,Wunderground v.1.15,2013-01-12 13:25:00,
2013-01-12 08:27:00,44.5,43.4,29.91,SW,217,0.0,5.0,96,0.00,,,0.00,Wunderground v.1.15,2013-01-12 13:27:00,
2013-01-12 08:29:00,44.5,43.4,29.91,SSW,198,0.0,5.0,96,0.00,,,0.00,Wunderground v.1.15,2013-01-12 13:29:00,
2013-01-12 08:30:00,44.5,43.4,29.91,ESE,114,2.0,3.0,96,0.00,,,0.00,Wunderground v.1.15,2013-01-12 13:30:00,
2013-01-12 08:32:00,44.5,43.4,29.91,SSE,152,0.0,3.0,96,0.00,,,0.00,Wunderground v.1.15,2013-01-12 13:32:00,
2013-01-12 08:34:00,44.5,43.4,29.92,SW,233,1.0,3.0,96,0.00,,,0.00,Wunderground v.1.15,2013-01-12 13:34:00,
2013-01-12 08:35:00,44.5,43.4,29.92,WSW,253,1.0,3.0,96,0.00,,,0.00,Wunderground v.1.15,2013-01-12 13:35:00,
2013-01-12 08:37:00,44.6,43.5,29.92,SW,236,1.0,6.0,96,0.00,,,0.00,Wunderground v.1.15,2013-01-12 13:37:00,
2013-01-12 08:39:00,44.6,43.5,29.92,SW,236,0.0,6.0,96,0.00,,,0.00,Wunderground v.1.15,2013-01-12 13:39:00,
2013-01-12 08:40:00,44.6,43.5,29.92,South,179,1.0,4.0,96,0.00,,,0.00,Wunderground v.1.15,2013-01-12 13:40:00,
2013-01-12 08:42:00,44.7,43.6,29.92,SW,228,0.0,5.0,96,0.00,,,0.00,Wunderground v.1.15,2013-01-12 13:42:00,
2013-01-12 08:44:00,44.8,43.7,29.92,WSW,245,3.0,6.0,96,0.00,,,0.00,Wunderground v.1.15,2013-01-12 13:44:00,
2013-01-12 08:45:00,44.8,43.7,29.92,WSW,243,2.0,6.0,96,0.00,,,0.00,Wunderground v.1.15,2013-01-12 13:45:00,
2013-01-12 08:47:00,44.9,43.8,29.93,WSW,241,3.0,6.0,96,0.00,,,0.00,Wunderground v.1.15,2013-01-12 13:47:00,
2013-01-12 08:50:00,45.1,44.0,29.94,WSW,243,6.0,6.0,96,0.00,,,0.00,Wunderground v.1.15,2013-01-12 13:50:00,
2013-01-12 08:52:00,45.3,44.2,29.94,SW,226,5.0,6.0,96,0.00,,,0.00,Wunderground v.1.15,2013-01-12 13:52:00,
2013-01-12 08:55:00,45.3,44.0,29.93,SW,229,2.0,6.0,95,0.00,,,0.00,Wunderground v.1.15,2013-01-12 13:55:00,
2013-01-12 08:57:00,45.4,44.1,29.93,WSW,246,4.0,7.0,95,0.00,,,0.00,Wunderground v.1.15,2013-01-12 13:57:00,
2013-01-12 09:01:00,45.6,44.3,29.94,WSW,243,2.0,3.0,95,0.00,,,0.00,Wunderground v.1.15,2013-01-12 14:01:00,
2013-01-12 09:02:00,45.6,44.3,29.94,West,264,1.0,5.0,95,0.00,,,0.00,Wunderground v.1.15,2013-01-12 14:02:00,
2013-01-12 09:06:00,45.7,44.1,29.94,SW,218,1.0,6.0,94,0.00,,,0.00,Wunderground v.1.15,2013-01-12 14:06:00,
2013-01-12 09:07:00,45.8,44.2,29.94,WSW,246,1.0,6.0,94,0.00,,,0.00,Wunderground v.1.15,2013-01-12 14:07:00,
2013-01-12 09:11:00,45.8,44.2,29.94,WSW,239,1.0,3.0,94,0.00,,,0.00,Wunderground v.1.15,2013-01-12 14:11:00,
2013-01-12 09:12:00,45.8,44.2,29.94,WSW,258,3.0,3.0,94,0.00,,,0.00,Wunderground v.1.15,2013-01-12 14:12:00,
2013-01-12 09:16:00,45.9,44.3,29.95,WSW,237,1.0,3.0,94,0.00,,,0.00,Wunderground v.1.15,2013-01-12 14:16:00,
2013-01-12 09:17:00,45.9,44.3,29.95,WSW,238,1.0,3.0,94,0.00,,,0.00,Wunderground v.1.15,2013-01-12 14:17:00,
2013-01-12 09:21:00,46.1,44.5,29.94,SSW,200,0.0,4.0,94,0.00,,,0.00,Wunderground v.1.15,2013-01-12 14:21:00,
2013-01-12 09:22:00,46.1,44.5,29.94,West,267,1.0,4.0,94,0.00,,,0.00,Wunderground v.1.15,2013-01-12 14:22:00,
2013-01-12 09:26:00,46.3,44.7,29.94,West,267,2.0,4.0,94,0.00,,,0.00,Wunderground v.1.15,2013-01-12 14:26:00,
2013-01-12 09:27:00,46.4,44.8,29.94,SW,224,2.0,4.0,94,0.00,,,0.00,Wunderground v.1.15,2013-01-12 14:27:00,
2013-01-12 09:28:00,46.4,44.8,29.94,WSW,250,2.0,4.0,94,0.00,,,0.00,Wunderground v.1.15,2013-01-12 14:28:00,
2013-01-12 09:31:00,46.5,44.6,29.93,WSW,239,1.0,4.0,93,0.00,,,0.00,Wunderground v.1.15,2013-01-12 14:31:00,
2013-01-12 09:32:00,46.5,44.6,29.93,SW,233,0.0,4.0,93,0.00,,,0.00,Wunderground v.1.15,2013-01-12 14:32:00,
2013-01-12 09:33:00,46.6,44.7,29.93,WSW,249,1.0,4.0,93,0.00,,,0.00,Wunderground v.1.15,2013-01-12 14:33:00,
2013-01-12 09:36:00,46.7,44.8,29.94,West,264,1.0,4.0,93,0.00,,,0.00,Wunderground v.1.15,2013-01-12 14:36:00,
2013-01-12 09:37:00,46.8,44.9,29.94,SW,224,2.0,5.0,93,0.00,,,0.00,Wunderground v.1.15,2013-01-12 14:37:00,
2013-01-12 09:38:00,46.8,44.9,29.94,WSW,249,4.0,5.0,93,0.00,,,0.00,Wunderground v.1.15,2013-01-12 14:38:00,
2013-01-12 09:41:00,47.0,45.1,29.93,WSW,239,3.0,4.0,93,0.00,,,0.00,Wunderground v.1.15,2013-01-12 14:41:00,
2013-01-12 09:42:00,47.1,45.2,29.93,WSW,246,1.0,4.0,93,0.00,,,0.00,Wunderground v.1.15,2013-01-12 14:42:00,
2013-01-12 09:43:00,47.1,45.2,29.93,WSW,246,0.0,4.0,93,0.00,,,0.00,Wunderground v.1.15,2013-01-12 14:43:00,
2013-01-12 09:46:00,47.3,45.4,29.93,SW,226,0.0,5.0,93,0.00,,,0.00,Wunderground v.1.15,2013-01-12 14:46:00,
2013-01-12 09:47:00,47.3,45.4,29.93,WSW,248,2.0,5.0,93,0.00,,,0.00,Wunderground v.1.15,2013-01-12 14:47:00,
2013-01-12 09:48:00,47.4,45.2,29.93,SSW,193,0.0,5.0,92,0.00,,,0.00,Wunderground v.1.15,2013-01-12 14:48:00,
2013-01-12 09:51:00,47.5,45.3,29.93,SW,222,1.0,6.0,92,0.00,,,0.00,Wunderground v.1.15,2013-01-12 14:51:00,
2013-01-12 09:53:00,47.6,45.4,29.93,SW,232,1.0,6.0,92,0.00,,,0.00,Wunderground v.1.15,2013-01-12 14:53:00,
2013-01-12 09:54:00,47.7,45.5,29.93,SW,232,2.0,6.0,92,0.00,,,0.00,Wunderground v.1.15,2013-01-12 14:54:00,
2013-01-12 09:56:00,47.8,45.6,29.92,SW,226,1.0,6.0,92,0.00,,,0.00,Wunderground v.1.15,2013-01-12 14:56:00,
2013-01-12 09:58:00,47.9,45.7,29.92,WSW,249,0.0,6.0,92,0.00,,,0.00,Wunderground v.1.15,2013-01-12 14:58:00,
2013-01-12 09:59:00,47.9,45.7,29.92,SW,219,0.0,6.0,92,0.00,,,0.00,Wunderground v.1.15,2013-01-12 14:59:00,
2013-01-12 10:01:00,48.0,45.5,29.92,West,270,2.0,3.0,91,0.00,,,0.00,Wunderground v.1.15,2013-01-12 15:01:00,
2013-01-12 10:03:00,48.1,45.6,29.92,SW,225,0.0,4.0,91,0.00,,,0.00,Wunderground v.1.15,2013-01-12 15:03:00,
2013-01-12 10:04:00,48.2,45.7,29.92,WSW,248,1.0,4.0,91,0.00,,,0.00,Wunderground v.1.15,2013-01-12 15:04:00,
2013-01-12 10:07:00,48.3,45.8,29.92,WSW,248,1.0,4.0,91,0.00,,,0.00,Wunderground v.1.15,2013-01-12 15:07:00,
2013-01-12 10:08:00,48.4,45.9,29.92,SW,228,1.0,4.0,91,0.00,,,0.00,Wunderground v.1.15,2013-01-12 15:08:00,
2013-01-12 10:09:00,48.4,45.9,29.92,WSW,252,3.0,4.0,91,0.00,,,0.00,Wunderground v.1.15,2013-01-12 15:09:00,
2013-01-12 10:12:00,48.5,46.0,29.92,WSW,251,0.0,5.0,91,0.00,,,0.00,Wunderground v.1.15,2013-01-12 15:12:00,
2013-01-12 10:13:00,48.5,46.0,29.92,WSW,256,1.0,5.0,91,0.00,,,0.00,Wunderground v.1.15,2013-01-12 15:13:00,
2013-01-12 10:14:00,48.5,45.7,29.92,WSW,240,3.0,5.0,90,0.00,,,0.00,Wunderground v.1.15,2013-01-12 15:14:00,
2013-01-12 10:17:00,48.6,45.8,29.92,West,262,3.0,6.0,90,0.00,,,0.00,Wunderground v.1.15,2013-01-12 15:17:00,
2013-01-12 10:18:00,48.6,45.8,29.92,West,266,1.0,6.0,90,0.00,,,0.00,Wunderground v.1.15,2013-01-12 15:18:00,
2013-01-12 10:19:00,48.7,45.9,29.92,WSW,252,2.0,6.0,90,0.00,,,0.00,Wunderground v.1.15,2013-01-12 15:19:00,
2013-01-12 10:22:00,48.7,45.9,29.92,WSW,257,1.0,3.0,90,0.00,,,0.00,Wunderground v.1.15,2013-01-12 15:22:00,
2013-01-12 10:23:00,48.7,45.9,29.92,WSW,251,2.0,3.0,90,0.00,,,0.00,Wunderground v.1.15,2013-01-12 15:23:00,
2013-01-12 10:24:00,48.7,45.9,29.92,WSW,238,2.0,4.0,90,0.00,,,0.00,Wunderground v.1.15,2013-01-12 15:24:00,
2013-01-12 10:27:00,48.9,46.1,29.92,West,264,2.0,6.0,90,0.00,,,0.00,Wunderground v.1.15,2013-01-12 15:27:00,
2013-01-12 10:28:00,48.9,46.1,29.92,WSW,248,2.0,6.0,90,0.00,,,0.00,Wunderground v.1.15,2013-01-12 15:28:00,
2013-01-12 10:29:00,48.9,46.1,29.92,WSW,243,3.0,6.0,90,0.00,,,0.00,Wunderground v.1.15,2013-01-12 15:29:00,
2013-01-12 10:30:00,48.9,46.1,29.92,WSW,240,3.0,5.0,90,0.00,,,0.00,Wunderground v.1.15,2013-01-12 15:30:00,
2013-01-12 10:32:00,49.0,46.2,29.92,SW,234,3.0,5.0,90,0.00,,,0.00,Wunderground v.1.15,2013-01-12 15:32:00,
2013-01-12 10:34:00,49.1,46.3,29.92,SSW,213,3.0,5.0,90,0.00,,,0.00,Wunderground v.1.15,2013-01-12 15:34:00,
2013-01-12 10:35:00,49.1,46.0,29.93,SSE,162,3.0,5.0,89,0.00,,,0.00,Wunderground v.1.15,2013-01-12 15:35:00,
2013-01-12 10:37:00,49.2,46.1,29.92,SW,226,4.0,5.0,89,0.00,,,0.00,Wunderground v.1.15,2013-01-12 15:37:00,
2013-01-12 10:39:00,49.3,46.2,29.93,WSW,250,3.0,5.0,89,0.00,,,0.00,Wunderground v.1.15,2013-01-12 15:39:00,
2013-01-12 10:40:00,49.3,46.2,29.93,WSW,249,4.0,4.0,89,0.00,,,0.00,Wunderground v.1.15,2013-01-12 15:40:00,
2013-01-12 10:42:00,49.5,46.4,29.92,WSW,258,5.0,7.0,89,0.00,,,0.00,Wunderground v.1.15,2013-01-12 15:42:00,
2013-01-12 10:44:00,49.5,46.4,29.92,WSW,239,1.0,7.0,89,0.00,,,0.00,Wunderground v.1.15,2013-01-12 15:44:00,
2013-01-12 10:45:00,49.6,46.5,29.92,WNW,285,2.0,7.0,89,0.00,,,0.00,Wunderground v.1.15,2013-01-12 15:45:00,
2013-01-12 10:47:00,49.7,46.6,29.93,WSW,243,4.0,7.0,89,0.00,,,0.00,Wunderground v.1.15,2013-01-12 15:47:00,
2013-01-12 10:49:00,49.8,46.4,29.92,SW,215,4.0,7.0,88,0.00,,,0.00,Wunderground v.1.15,2013-01-12 15:49:00,
2013-01-12 10:50:00,49.9,46.5,29.92,WSW,257,3.0,3.0,88,0.00,,,0.00,Wunderground v.1.15,2013-01-12 15:50:00,
2013-01-12 10:52:00,50.1,46.7,29.92,SW,226,4.0,5.0,88,0.00,,,0.00,Wunderground v.1.15,2013-01-12 15:52:00,
2013-01-12 10:54:00,50.2,46.8,29.92,West,269,3.0,10.0,88,0.00,,,0.00,Wunderground v.1.15,2013-01-12 15:54:00,
2013-01-12 10:55:00,50.3,46.9,29.92,SW,221,5.0,10.0,88,0.00,,,0.00,Wunderground v.1.15,2013-01-12 15:55:00,
2013-01-12 10:56:00,50.4,47.0,29.92,SW,236,1.0,10.0,88,0.00,,,0.00,Wunderground v.1.15,2013-01-12 15:56:00,
2013-01-12 10:57:00,50.4,47.0,29.92,West,269,1.0,10.0,88,0.00,,,0.00,Wunderground v.1.15,2013-01-12 15:57:00,
2013-01-12 10:59:00,50.5,47.1,29.92,SW,233,5.0,10.0,88,0.00,,,0.00,Wunderground v.1.15,2013-01-12 15:59:00,
2013-01-12 11:01:00,50.6,46.9,29.92,SSW,198,5.0,8.0,87,0.00,,,0.00,Wunderground v.1.15,2013-01-12 16:01:00,
2013-01-12 11:03:00,50.7,47.0,29.92,West,265,1.0,8.0,87,0.00,,,0.00,Wunderground v.1.15,2013-01-12 16:03:00,
2013-01-12 11:04:00,50.8,47.1,29.92,WSW,247,5.0,8.0,87,0.00,,,0.00,Wunderground v.1.15,2013-01-12 16:04:00,
2013-01-12 11:06:00,50.8,47.1,29.91,WSW,239,4.0,8.0,87,0.00,,,0.00,Wunderground v.1.15,2013-01-12 16:06:00,
2013-01-12 11:08:00,50.9,47.2,29.92,West,262,2.0,8.0,87,0.00,,,0.00,Wunderground v.1.15,2013-01-12 16:08:00,
2013-01-12 11:10:00,50.9,47.2,29.92,West,271,1.0,3.0,87,0.00,,,0.00,Wunderground v.1.15,2013-01-12 16:10:00,
2013-01-12 11:11:00,51.0,47.0,29.92,WSW,239,2.0,3.0,86,0.00,,,0.00,Wunderground v.1.15,2013-01-12 16:11:00,
2013-01-12 11:12:00,51.0,47.3,29.92,WSW,257,5.0,5.0,87,0.00,,,0.00,Wunderground v.1.15,2013-01-12 16:12:00,
2013-01-12 11:13:00,51.0,47.0,29.92,SW,236,2.0,5.0,86,0.00,,,0.00,Wunderground v.1.15,2013-01-12 16:13:00,
2013-01-12 11:15:00,51.1,47.1,29.92,WNW,283,1.0,5.0,86,0.00,,,0.00,Wunderground v.1.15,2013-01-12 16:15:00,
2013-01-12 11:16:00,51.1,47.1,29.91,WSW,258,3.0,6.0,86,0.00,,,0.00,Wunderground v.1.15,2013-01-12 16:16:00,
2013-01-12 11:17:00,51.2,47.2,29.91,West,265,2.0,6.0,86,0.00,,,0.00,Wunderground v.1.15,2013-01-12 16:17:00,
2013-01-12 11:18:00,51.2,47.2,29.91,SW,236,2.0,6.0,86,0.00,,,0.00,Wunderground v.1.15,2013-01-12 16:18:00,
2013-01-12 11:20:00,51.2,47.2,29.91,West,270,1.0,3.0,86,0.00,,,0.00,Wunderground v.1.15,2013-01-12 16:20:00,
2013-01-12 11:21:00,51.3,47.3,29.91,West,266,2.0,3.0,86,0.00,,,0.00,Wunderground v.1.15,2013-01-12 16:21:00,
2013-01-12 11:22:00,51.3,47.3,29.91,WSW,238,2.0,3.0,86,0.00,,,0.00,Wunderground v.1.15,2013-01-12 16:22:00,
2013-01-12 11:23:00,51.3,47.3,29.91,WSW,246,3.0,3.0,86,0.00,,,0.00,Wunderground v.1.15,2013-01-12 16:23:00,
2013-01-12 11:25:00,51.4,47.4,29.91,WSW,243,2.0,3.0,86,0.00,,,0.00,Wunderground v.1.15,2013-01-12 16:25:00,
2013-01-12 11:26:00,51.4,47.4,29.91,WSW,239,3.0,5.0,86,0.00,,,0.00,Wunderground v.1.15,2013-01-12 16:26:00,
2013-01-12 11:27:00,51.4,47.4,29.91,WSW,241,3.0,5.0,86,0.00,,,0.00,Wunderground v.1.15,2013-01-12 16:27:00,
2013-01-12 11:28:00,51.5,47.5,29.91,WSW,240,2.0,5.0,86,0.00,,,0.00,Wunderground v.1.15,2013-01-12 16:28:00,
2013-01-12 11:30:00,51.5,47.1,29.91,West,262,4.0,4.0,85,0.00,,,0.00,Wunderground v.1.15,2013-01-12 16:30:00,
2013-01-12 11:32:00,51.6,47.2,29.91,WSW,258,2.0,6.0,85,0.00,,,0.00,Wunderground v.1.15,2013-01-12 16:32:00,
2013-01-12 11:33:00,51.6,47.2,29.91,WSW,256,2.0,6.0,85,0.00,,,0.00,Wunderground v.1.15,2013-01-12 16:33:00,
2013-01-12 11:35:00,51.7,47.3,29.91,WSW,239,7.0,7.0,85,0.00,,,0.00,Wunderground v.1.15,2013-01-12 16:35:00,
2013-01-12 11:37:00,51.7,47.3,29.91,West,264,4.0,8.0,85,0.00,,,0.00,Wunderground v.1.15,2013-01-12 16:37:00,
2013-01-12 11:38:00,51.7,47.3,29.91,WSW,255,3.0,8.0,85,0.00,,,0.00,Wunderground v.1.15,2013-01-12 16:38:00,
2013-01-12 11:40:00,51.8,47.4,29.91,WSW,242,3.0,5.0,85,0.00,,,0.00,Wunderground v.1.15,2013-01-12 16:40:00,
2013-01-12 11:43:00,51.8,47.4,29.91,WSW,249,4.0,5.0,85,0.00,,,0.00,Wunderground v.1.15,2013-01-12 16:43:00,
2013-01-12 11:46:00,51.9,47.5,29.91,WSW,246,4.0,5.0,85,0.00,,,0.00,Wunderground v.1.15,2013-01-12 16:46:00,
2013-01-12 11:48:00,51.9,47.5,29.91,WSW,243,2.0,5.0,85,0.00,,,0.00,Wunderground v.1.15,2013-01-12 16:48:00,
2013-01-12 11:51:00,52.0,47.3,29.90,WSW,252,4.0,10.0,84,0.00,,,0.00,Wunderground v.1.15,2013-01-12 16:51:00,
2013-01-12 11:53:00,52.0,47.6,29.90,WSW,242,3.0,10.0,85,0.00,,,0.00,Wunderground v.1.15,2013-01-12 16:53:00,
2013-01-12 11:57:00,52.1,47.4,29.90,SW,232,2.0,10.0,84,0.00,,,0.00,Wunderground v.1.15,2013-01-12 16:57:00,
2013-01-12 11:58:00,52.1,47.7,29.90,SW,236,2.0,10.0,85,0.00,,,0.00,Wunderground v.1.15,2013-01-12 16:58:00,
2013-01-12 11:59:00,52.2,47.8,29.90,SW,222,2.0,10.0,85,0.00,,,0.00,Wunderground v.1.15,2013-01-12 16:59:00,
2013-01-12 12:02:00,52.3,47.9,29.90,West,260,3.0,4.0,85,0.00,,,0.00,Wunderground v.1.15,2013-01-12 17:02:00,
2013-01-12 12:03:00,52.3,47.6,29.90,WSW,239,2.0,6.0,84,0.00,,,0.00,Wunderground v.1.15,2013-01-12 17:03:00,
2013-01-12 12:04:00,52.3,47.6,29.90,SW,223,3.0,6.0,84,0.00,,,0.00,Wunderground v.1.15,2013-01-12 17:04:00,
2013-01-12 12:07:00,52.4,47.7,29.89,SW,236,2.0,6.0,84,0.00,,,0.00,Wunderground v.1.15,2013-01-12 17:07:00,
2013-01-12 12:08:00,52.4,47.7,29.89,SW,235,1.0,6.0,84,0.00,,,0.00,Wunderground v.1.15,2013-01-12 17:08:00,
2013-01-12 12:09:00,52.4,47.7,29.89,WSW,254,2.0,6.0,84,0.00,,,0.00,Wunderground v.1.15,2013-01-12 17:09:00,
2013-01-12 12:12:00,52.6,47.9,29.89,WSW,246,1.0,8.0,84,0.00,,,0.00,Wunderground v.1.15,2013-01-12 17:12:00,
2013-01-12 12:13:00,52.6,47.9,29.89,WSW,255,1.0,8.0,84,0.00,,,0.00,Wunderground v.1.15,2013-01-12 17:13:00,
2013-01-12 12:14:00,52.6,47.9,29.89,WSW,256,2.0,8.0,84,0.00,,,0.00,Wunderground v.1.15,2013-01-12 17:14:00,
2013-01-12 12:17:00,52.7,48.0,29.89,West,259,1.0,8.0,84,0.00,,,0.00,Wunderground v.1.15,2013-01-12 17:17:00,
2013-01-12 12:18:00,52.7,48.0,29.89,West,266,1.0,8.0,84,0.00,,,0.00,Wunderground v.1.15,2013-01-12 17:18:00,
2013-01-12 12:19:00,52.8,48.1,29.89,WSW,252,2.0,8.0,84,0.00,,,0.00,Wunderground v.1.15,2013-01-12 17:19:00,
2013-01-12 12:22:00,52.9,47.9,29.89,SW,226,2.0,6.0,83,0.00,,,0.00,Wunderground v.1.15,2013-01-12 17:22:00,
2013-01-12 12:24:00,52.9,48.2,29.89,SSW,212,4.0,6.0,84,0.00,,,0.00,Wunderground v.1.15,2013-01-12 17:24:00,
2013-01-12 12:27:00,53.1,48.4,29.89,West,263,1.0,6.0,84,0.00,,,0.00,Wunderground v.1.15,2013-01-12 17:27:00,
2013-01-12 12:29:00,53.1,48.1,29.89,West,267,2.0,6.0,83,0.00,,,0.00,Wunderground v.1.15,2013-01-12 17:29:00,
2013-01-12 12:33:00,53.3,48.3,29.89,WSW,249,4.0,7.0,83,0.00,,,0.00,Wunderground v.1.15,2013-01-12 17:33:00,
2013-01-12 12:34:00,53.4,48.4,29.89,WSW,255,5.0,7.0,83,0.00,,,0.00,Wunderground v.1.15,2013-01-12 17:34:00,
2013-01-12 12:35:00,53.4,48.0,29.89,West,265,2.0,7.0,82,0.00,,,0.00,Wunderground v.1.15,2013-01-12 17:35:00,
2013-01-12 12:38:00,53.7,48.7,29.89,West,263,3.0,7.0,83,0.00,,,0.00,Wunderground v.1.15,2013-01-12 17:38:00,
2013-01-12 12:39:00,53.8,48.8,29.89,WSW,246,5.0,7.0,83,0.00,,,0.00,Wunderground v.1.15,2013-01-12 17:39:00,
2013-01-12 12:40:00,53.8,48.4,29.89,West,270,2.0,3.0,82,0.00,,,0.00,Wunderground v.1.15,2013-01-12 17:40:00,
2013-01-12 12:43:00,54.1,48.4,29.89,West,264,4.0,8.0,81,0.00,,,0.00,Wunderground v.1.15,2013-01-12 17:43:00,
2013-01-12 12:44:00,54.1,48.4,29.89,WSW,257,4.0,8.0,81,0.00,,,0.00,Wunderground v.1.15,2013-01-12 17:44:00,
2013-01-12 12:45:00,54.1,48.4,29.89,WSW,240,5.0,8.0,81,0.00,,,0.00,Wunderground v.1.15,2013-01-12 17:45:00,
2013-01-12 12:48:00,54.2,48.5,29.89,West,274,4.0,8.0,81,0.00,,,0.00,Wunderground v.1.15,2013-01-12 17:48:00,
2013-01-12 12:50:00,54.2,48.5,29.89,West,260,6.0,6.0,81,0.00,,,0.00,Wunderground v.1.15,2013-01-12 17:50:00,
2013-01-12 12:54:00,54.3,48.6,29.88,WSW,243,1.0,9.0,81,0.00,,,0.00,Wunderground v.1.15,2013-01-12 17:54:00,
2013-01-12 12:55:00,54.3,48.6,29.89,SW,231,5.0,9.0,81,0.00,,,0.00,Wunderground v.1.15,2013-01-12 17:55:00,
2013-01-12 12:59:00,54.4,48.4,29.88,West,270,4.0,9.0,80,0.00,,,0.00,Wunderground v.1.15,2013-01-12 17:59:00,
2013-01-12 13:00:00,54.4,48.7,29.88,SW,229,5.0,5.0,81,0.00,,,0.00,Wunderground v.1.15,2013-01-12 18:00:00,
2013-01-12 13:04:00,54.5,48.8,29.89,WSW,239,3.0,6.0,81,0.00,,,0.00,Wunderground v.1.15,2013-01-12 18:04:00,
2013-01-12 13:05:00,54.5,48.8,29.89,West,262,2.0,6.0,81,0.00,,,0.00,Wunderground v.1.15,2013-01-12 18:05:00,
2013-01-12 13:09:00,54.6,48.6,29.88,SSW,201,4.0,6.0,80,0.00,,,0.00,Wunderground v.1.15,2013-01-12 18:09:00,
2013-01-12 13:10:00,54.7,48.6,29.88,WSW,252,3.0,5.0,80,0.00,,,0.00,Wunderground v.1.15,2013-01-12 18:10:00,
2013-01-12 13:11:00,54.7,48.6,29.88,WSW,256,3.0,5.0,80,0.00,,,0.00,Wunderground v.1.15,2013-01-12 18:11:00,
2013-01-12 13:14:00,54.8,48.7,29.88,WSW,246,5.0,12.0,80,0.00,,,0.00,Wunderground v.1.15,2013-01-12 18:14:00,
2013-01-12 13:15:00,54.9,48.8,29.88,WSW,253,3.0,12.0,80,0.00,,,0.00,Wunderground v.1.15,2013-01-12 18:15:00,
2013-01-12 13:16:00,54.9,48.8,29.88,WSW,239,3.0,12.0,80,0.00,,,0.00,Wunderground v.1.15,2013-01-12 18:16:00,
2013-01-12 13:19:00,55.0,48.9,29.88,SSW,205,4.0,12.0,80,0.00,,,0.00,Wunderground v.1.15,2013-01-12 18:19:00,
2013-01-12 13:21:00,55.0,48.9,29.88,West,278,2.0,4.0,80,0.00,,,0.00,Wunderground v.1.15,2013-01-12 18:21:00,
2013-01-12 13:24:00,55.1,48.7,29.87,WSW,257,5.0,6.0,79,0.00,,,0.00,Wunderground v.1.15,2013-01-12 18:24:00,
2013-01-12 13:26:00,55.2,48.8,29.88,WSW,256,3.0,7.0,79,0.00,,,0.00,Wunderground v.1.15,2013-01-12 18:26:00,
2013-01-12 13:29:00,55.3,48.9,29.88,WSW,250,6.0,7.0,79,0.00,,,0.00,Wunderground v.1.15,2013-01-12 18:29:00,
2013-01-12 13:31:00,55.3,48.6,29.88,SW,236,3.0,8.0,78,0.00,,,0.00,Wunderground v.1.15,2013-01-12 18:31:00,
2013-01-12 13:35:00,55.5,48.8,29.88,WSW,246,4.0,9.0,78,0.00,,,0.00,Wunderground v.1.15,2013-01-12 18:35:00,
2013-01-12 13:36:00,55.5,48.8,29.88,WSW,255,3.0,9.0,78,0.00,,,0.00,Wunderground v.1.15,2013-01-12 18:36:00,
2013-01-12 13:37:00,55.5,48.8,29.88,SW,233,2.0,9.0,78,0.00,,,0.00,Wunderground v.1.15,2013-01-12 18:37:00,
2013-01-12 13:40:00,55.5,48.8,29.88,WSW,243,5.0,7.0,78,0.00,,,0.00,Wunderground v.1.15,2013-01-12 18:40:00,
2013-01-12 13:42:00,55.6,48.8,29.88,SW,236,3.0,7.0,78,0.00,,,0.00,Wunderground v.1.15,2013-01-12 18:42:00,
2013-01-12 13:45:00,55.9,49.1,29.88,WSW,246,3.0,7.0,78,0.00,,,0.00,Wunderground v.1.15,2013-01-12 18:45:00,
2013-01-12 13:47:00,56.0,49.2,29.88,SSW,203,4.0,7.0,78,0.00,,,0.00,Wunderground v.1.15,2013-01-12 18:47:00,
2013-01-12 13:50:00,56.2,49.1,29.88,SW,236,5.0,5.0,77,0.00,,,0.00,Wunderground v.1.15,2013-01-12 18:50:00,
2013-01-12 13:52:00,56.2,49.1,29.88,WSW,257,4.0,5.0,77,0.00,,,0.00,Wunderground v.1.15,2013-01-12 18:52:00,
2013-01-12 13:53:00,56.3,49.2,29.88,West,260,3.0,5.0,77,0.00,,,0.00,Wunderground v.1.15,2013-01-12 18:53:00,
2013-01-12 13:55:00,56.3,49.2,29.88,WSW,243,5.0,8.0,77,0.00,,,0.00,Wunderground v.1.15,2013-01-12 18:55:00,
2013-01-12 13:57:00,56.4,48.9,29.88,SW,234,1.0,8.0,76,0.00,,,0.00,Wunderground v.1.15,2013-01-12 18:57:00,
2013-01-12 13:58:00,56.4,48.9,29.88,WSW,252,3.0,8.0,76,0.00,,,0.00,Wunderground v.1.15,2013-01-12 18:58:00,
2013-01-12 14:00:00,56.5,49.0,29.88,WSW,256,1.0,3.0,76,0.00,,,0.00,Wunderground v.1.15,2013-01-12 19:00:00,
2013-01-12 14:02:00,56.5,49.0,29.88,WSW,243,7.0,7.0,76,0.00,,,0.00,Wunderground v.1.15,2013-01-12 19:02:00,
2013-01-12 14:03:00,56.6,48.8,29.88,SE,142,3.0,9.0,75,0.00,,,0.00,Wunderground v.1.15,2013-01-12 19:03:00,
2013-01-12 14:06:00,56.7,49.2,29.88,SW,231,0.0,9.0,76,0.00,,,0.00,Wunderground v.1.15,2013-01-12 19:06:00,
2013-01-12 14:07:00,56.8,49.0,29.88,SW,222,2.0,9.0,75,0.00,,,0.00,Wunderground v.1.15,2013-01-12 19:07:00,
2013-01-12 14:08:00,56.8,49.0,29.88,WSW,239,8.0,9.0,75,0.00,,,0.00,Wunderground v.1.15,2013-01-12 19:08:00,
2013-01-12 14:11:00,57.1,48.9,29.88,WSW,257,3.0,12.0,74,0.00,,,0.00,Wunderground v.1.15,2013-01-12 19:11:00,
2013-01-12 14:12:00,57.2,49.0,29.88,East,86,1.0,13.0,74,0.00,,,0.00,Wunderground v.1.15,2013-01-12 19:12:00,
2013-01-12 14:13:00,57.3,49.1,29.88,WSW,246,1.0,13.0,74,0.00,,,0.00,Wunderground v.1.15,2013-01-12 19:13:00,
2013-01-12 14:16:00,57.6,49.4,29.88,WSW,239,1.0,13.0,74,0.00,,,0.00,Wunderground v.1.15,2013-01-12 19:16:00,
2013-01-12 14:17:00,57.8,49.6,29.89,SW,218,4.0,13.0,74,0.00,,,0.00,Wunderground v.1.15,2013-01-12 19:17:00,
2013-01-12 14:18:00,57.8,49.6,29.89,WSW,242,5.0,13.0,74,0.00,,,0.00,Wunderground v.1.15,2013-01-12 19:18:00,
2013-01-12 14:21:00,58.0,49.0,29.89,WSW,258,4.0,7.0,72,0.00,,,0.00,Wunderground v.1.15,2013-01-12 19:21:00,
2013-01-12 14:22:00,58.1,49.5,29.89,WSW,241,7.0,8.0,73,0.00,,,0.00,Wunderground v.1.15,2013-01-12 19:22:00,
2013-01-12 14:23:00,58.1,49.1,29.89,SW,233,1.0,8.0,72,0.00,,,0.00,Wunderground v.1.15,2013-01-12 19:23:00,
2013-01-12 14:26:00,58.4,49.4,29.89,West,265,2.0,8.0,72,0.00,,,0.00,Wunderground v.1.15,2013-01-12 19:26:00,
2013-01-12 14:27:00,58.5,49.5,29.89,WSW,248,3.0,8.0,72,0.00,,,0.00,Wunderground v.1.15,2013-01-12 19:27:00,
2013-01-12 14:28:00,58.6,49.6,29.89,South,179,3.0,8.0,72,0.00,,,0.00,Wunderground v.1.15,2013-01-12 19:28:00,
2013-01-12 14:29:00,58.5,49.5,29.89,SSE,162,2.0,8.0,72,0.00,,,0.00,Wunderground v.1.15,2013-01-12 19:29:00,
2013-01-12 14:31:00,58.6,49.6,29.89,SW,236,2.0,3.0,72,0.00,,,0.00,Wunderground v.1.15,2013-01-12 19:31:00,
2013-01-12 14:33:00,58.7,49.7,29.89,SE,126,1.0,5.0,72,0.00,,,0.00,Wunderground v.1.15,2013-01-12 19:33:00,
2013-01-12 14:34:00,58.8,49.8,29.89,WSW,255,1.0,5.0,72,0.00,,,0.00,Wunderground v.1.15,2013-01-12 19:34:00,
2013-01-12 14:36:00,58.9,49.5,29.89,WSW,242,3.0,6.0,71,0.00,,,0.00,Wunderground v.1.15,2013-01-12 19:36:00,
2013-01-12 14:38:00,58.9,49.5,29.90,SE,139,1.0,6.0,71,0.00,,,0.00,Wunderground v.1.15,2013-01-12 19:38:00,
2013-01-12 14:39:00,58.9,49.9,29.90,West,263,3.0,6.0,72,0.00,,,0.00,Wunderground v.1.15,2013-01-12 19:39:00,
2013-01-12 14:41:00,58.8,49.8,29.90,WSW,255,2.0,3.0,72,0.00,,,0.00,Wunderground v.1.15,2013-01-12 19:41:00,
2013-01-12 14:43:00,58.7,49.3,29.90,WSW,253,5.0,5.0,71,0.00,,,0.00,Wunderground v.1.15,2013-01-12 19:43:00,
2013-01-12 14:44:00,58.8,49.4,29.90,WSW,243,6.0,6.0,71,0.00,,,0.00,Wunderground v.1.15,2013-01-12 19:44:00,
2013-01-12 14:46:00,58.8,49.8,29.90,SW,236,2.0,7.0,72,0.00,,,0.00,Wunderground v.1.15,2013-01-12 19:46:00,
2013-01-12 14:48:00,58.9,49.5,29.90,SW,236,2.0,7.0,71,0.00,,,0.00,Wunderground v.1.15,2013-01-12 19:48:00,
2013-01-12 14:49:00,59.1,49.7,29.90,SW,226,4.0,7.0,71,0.00,,,0.00,Wunderground v.1.15,2013-01-12 19:49:00,
2013-01-12 14:52:00,59.2,49.4,29.90,WSW,256,3.0,7.0,70,0.00,,,0.00,Wunderground v.1.15,2013-01-12 19:52:00,
2013-01-12 14:53:00,59.2,49.4,29.91,West,260,4.0,9.0,70,0.00,,,0.00,Wunderground v.1.15,2013-01-12 19:53:00,
2013-01-12 14:54:00,59.3,49.5,29.90,WSW,253,5.0,9.0,70,0.00,,,0.00,Wunderground v.1.15,2013-01-12 19:54:00,
2013-01-12 14:55:00,59.2,49.0,29.90,West,262,5.0,9.0,69,0.00,,,0.00,Wunderground v.1.15,2013-01-12 19:55:00,
2013-01-12 14:57:00,59.3,49.1,29.91,WSW,240,4.0,9.0,69,0.00,,,0.00,Wunderground v.1.15,2013-01-12 19:57:00,
2013-01-12 14:58:00,59.3,49.1,29.91,SW,229,2.0,9.0,69,0.00,,,0.00,Wunderground v.1.15,2013-01-12 19:58:00,
2013-01-12 14:59:00,59.3,49.1,29.90,West,260,4.0,4.0,69,0.00,,,0.00,Wunderground v.1.15,2013-01-12 19:59:00,
2013-01-12 15:00:00,59.4,49.2,29.90,SW,229,6.0,6.0,69,0.00,,,0.00,Wunderground v.1.15,2013-01-12 20:00:00,
2013-01-12 15:02:00,59.4,48.8,29.90,West,259,5.0,8.0,68,0.00,,,0.00,Wunderground v.1.15,2013-01-12 20:02:00,
2013-01-12 15:03:00,59.4,49.2,29.90,WSW,256,2.0,8.0,69,0.00,,,0.00,Wunderground v.1.15,2013-01-12 20:03:00,
2013-01-12 15:05:00,59.3,48.7,29.90,SW,236,5.0,8.0,68,0.00,,,0.00,Wunderground v.1.15,2013-01-12 20:05:00,
2013-01-12 15:06:00,59.3,49.1,29.90,WSW,247,5.0,8.0,69,0.00,,,0.00,Wunderground v.1.15,2013-01-12 20:06:00,
2013-01-12 15:07:00,59.3,49.1,29.90,SW,235,5.0,8.0,69,0.00,,,0.00,Wunderground v.1.15,2013-01-12 20:07:00,
2013-01-12 15:08:00,59.3,48.7,29.91,SW,232,6.0,8.0,68,0.00,,,0.00,Wunderground v.1.15,2013-01-12 20:08:00,
2013-01-12 15:10:00,59.3,48.7,29.91,WSW,252,3.0,5.0,68,0.00,,,0.00,Wunderground v.1.15,2013-01-12 20:10:00,
2013-01-12 15:11:00,59.3,48.7,29.90,West,277,7.0,9.0,68,0.00,,,0.00,Wunderground v.1.15,2013-01-12 20:11:00,
2013-01-12 15:12:00,59.3,48.7,29.91,SW,233,7.0,9.0,68,0.00,,,0.00,Wunderground v.1.15,2013-01-12 20:12:00,
2013-01-12 15:13:00,59.3,49.1,29.90,WSW,242,2.0,9.0,69,0.00,,,0.00,Wunderground v.1.15,2013-01-12 20:13:00,
2013-01-12 15:15:00,59.3,49.1,29.91,WSW,238,3.0,9.0,69,0.00,,,0.00,Wunderground v.1.15,2013-01-12 20:15:00,
2013-01-12 15:16:00,59.3,49.1,29.90,WSW,245,1.0,9.0,69,0.00,,,0.00,Wunderground v.1.15,2013-01-12 20:16:00,
2013-01-12 15:17:00,59.3,49.1,29.91,WSW,257,3.0,9.0,69,0.00,,,0.00,Wunderground v.1.15,2013-01-12 20:17:00,
2013-01-12 15:19:00,59.2,49.0,29.90,WSW,252,2.0,9.0,69,0.00,,,0.00,Wunderground v.1.15,2013-01-12 20:19:00,
2013-01-12 15:20:00,59.2,49.0,29.90,WSW,246,3.0,4.0,69,0.00,,,0.00,Wunderground v.1.15,2013-01-12 20:20:00,
2013-01-12 15:22:00,59.2,49.0,29.91,WSW,238,1.0,7.0,69,0.00,,,0.00,Wunderground v.1.15,2013-01-12 20:22:00,
2013-01-12 15:23:00,59.1,49.3,29.91,WSW,242,3.0,7.0,70,0.00,,,0.00,Wunderground v.1.15,2013-01-12 20:23:00,
2013-01-12 15:24:00,59.1,49.3,29.91,SW,215,3.0,7.0,70,0.00,,,0.00,Wunderground v.1.15,2013-01-12 20:24:00,
2013-01-12 15:25:00,59.1,48.9,29.91,West,260,4.0,7.0,69,0.00,,,0.00,Wunderground v.1.15,2013-01-12 20:25:00,
2013-01-12 15:27:00,59.0,48.8,29.91,WSW,252,2.0,7.0,69,0.00,,,0.00,Wunderground v.1.15,2013-01-12 20:27:00,
2013-01-12 15:28:00,58.9,49.1,29.91,West,266,2.0,7.0,70,0.00,,,0.00,Wunderground v.1.15,2013-01-12 20:28:00,
2013-01-12 15:30:00,58.9,49.1,29.91,WSW,238,3.0,8.0,70,0.00,,,0.00,Wunderground v.1.15,2013-01-12 20:30:00,
2013-01-12 15:31:00,58.8,49.0,29.91,West,270,3.0,8.0,70,0.00,,,0.00,Wunderground v.1.15,2013-01-12 20:31:00,
2013-01-12 15:32:00,58.7,48.9,29.91,SW,226,4.0,8.0,70,0.00,,,0.00,Wunderground v.1.15,2013-01-12 20:32:00,
2013-01-12 15:33:00,58.7,48.9,29.91,West,262,5.0,8.0,70,0.00,,,0.00,Wunderground v.1.15,2013-01-12 20:33:00,
2013-01-12 15:35:00,58.6,48.8,29.91,WSW,238,3.0,8.0,70,0.00,,,0.00,Wunderground v.1.15,2013-01-12 20:35:00,
2013-01-12 15:36:00,58.6,48.8,29.91,SW,229,5.0,8.0,70,0.00,,,0.00,Wunderground v.1.15,2013-01-12 20:36:00,
2013-01-12 15:37:00,58.6,48.8,29.91,SW,232,4.0,8.0,70,0.00,,,0.00,Wunderground v.1.15,2013-01-12 20:37:00,
2013-01-12 15:38:00,58.6,48.8,29.91,SW,236,3.0,8.0,70,0.00,,,0.00,Wunderground v.1.15,2013-01-12 20:38:00,
2013-01-12 15:40:00,58.6,48.8,29.91,SW,226,4.0,4.0,70,0.00,,,0.00,Wunderground v.1.15,2013-01-12 20:40:00,
2013-01-12 15:41:00,58.6,48.8,29.90,SSW,211,3.0,4.0,70,0.00,,,0.00,Wunderground v.1.15,2013-01-12 20:41:00,
2013-01-12 15:42:00,58.6,49.2,29.90,WSW,248,3.0,4.0,71,0.00,,,0.00,Wunderground v.1.15,2013-01-12 20:42:00,
2013-01-12 15:43:00,58.6,49.2,29.90,SW,233,1.0,4.0,71,0.00,,,0.00,Wunderground v.1.15,2013-01-12 20:43:00,
2013-01-12 15:45:00,58.5,49.1,29.90,WSW,238,1.0,7.0,71,0.00,,,0.00,Wunderground v.1.15,2013-01-12 20:45:00,
2013-01-12 15:46:00,58.4,49.0,29.90,WSW,249,0.0,7.0,71,0.00,,,0.00,Wunderground v.1.15,2013-01-12 20:46:00,
2013-01-12 15:47:00,58.4,49.4,29.90,WSW,245,1.0,7.0,72,0.00,,,0.00,Wunderground v.1.15,2013-01-12 20:47:00,
2013-01-12 15:48:00,58.3,49.3,29.90,East,90,1.0,7.0,72,0.00,,,0.00,Wunderground v.1.15,2013-01-12 20:48:00,
2013-01-12 15:50:00,58.2,49.6,29.90,SW,231,2.0,3.0,73,0.00,,,0.00,Wunderground v.1.15,2013-01-12 20:50:00,
2013-01-12 15:51:00,58.1,49.5,29.90,WSW,249,2.0,3.0,73,0.00,,,0.00,Wunderground v.1.15,2013-01-12 20:51:00,
2013-01-12 15:52:00,58.0,49.4,29.90,WSW,249,0.0,3.0,73,0.00,,,0.00,Wunderground v.1.15,2013-01-12 20:52:00,
2013-01-12 15:53:00,57.9,49.7,29.90,WSW,239,1.0,3.0,74,0.00,,,0.00,Wunderground v.1.15,2013-01-12 20:53:00,
2013-01-12 15:56:00,57.7,49.5,29.90,SE,136,0.0,3.0,74,0.00,,,0.00,Wunderground v.1.15,2013-01-12 20:56:00,
2013-01-12 15:57:00,57.7,49.5,29.90,SSW,201,1.0,4.0,74,0.00,,,0.00,Wunderground v.1.15,2013-01-12 20:57:00,
2013-01-12 15:58:00,57.6,49.4,29.90,WSW,255,1.0,5.0,74,0.00,,,0.00,Wunderground v.1.15,2013-01-12 20:58:00,
2013-01-12 16:01:00,57.4,49.5,29.90,SSW,208,2.0,5.0,75,0.00,,,0.00,Wunderground v.1.15,2013-01-12 21:01:00,
2013-01-12 16:02:00,57.4,49.5,29.90,SSW,197,2.0,5.0,75,0.00,,,0.00,Wunderground v.1.15,2013-01-12 21:02:00,
2013-01-12 16:04:00,57.2,49.3,29.90,WSW,249,4.0,5.0,75,0.00,,,0.00,Wunderground v.1.15,2013-01-12 21:04:00,
2013-01-12 16:06:00,57.1,49.2,29.91,WSW,241,1.0,5.0,75,0.00,,,0.00,Wunderground v.1.15,2013-01-12 21:06:00,
2013-01-12 16:07:00,57.1,49.2,29.91,WSW,242,1.0,5.0,75,0.00,,,0.00,Wunderground v.1.15,2013-01-12 21:07:00,
2013-01-12 16:09:00,57.0,49.5,29.90,WSW,252,0.0,5.0,76,0.00,,,0.00,Wunderground v.1.15,2013-01-12 21:09:00,
2013-01-12 16:11:00,56.8,49.3,29.90,SE,134,1.0,2.0,76,0.00,,,0.00,Wunderground v.1.15,2013-01-12 21:11:00,
2013-01-12 16:12:00,56.8,49.3,29.90,SW,235,2.0,2.0,76,0.00,,,0.00,Wunderground v.1.15,2013-01-12 21:12:00,
2013-01-12 16:13:00,56.8,49.7,29.90,SW,229,2.0,3.0,77,0.00,,,0.00,Wunderground v.1.15,2013-01-12 21:13:00,
2013-01-12 16:15:00,56.7,49.6,29.90,SW,236,1.0,3.0,77,0.00,,,0.00,Wunderground v.1.15,2013-01-12 21:15:00,
2013-01-12 16:17:00,56.6,49.5,29.90,WSW,243,0.0,3.0,77,0.00,,,0.00,Wunderground v.1.15,2013-01-12 21:17:00,
2013-01-12 16:18:00,56.6,49.5,29.90,SSE,159,1.0,3.0,77,0.00,,,0.00,Wunderground v.1.15,2013-01-12 21:18:00,
2013-01-12 16:20:00,56.5,49.7,29.90,SW,233,0.0,2.0,78,0.00,,,0.00,Wunderground v.1.15,2013-01-12 21:20:00,
2013-01-12 16:22:00,56.5,49.7,29.90,SW,231,2.0,3.0,78,0.00,,,0.00,Wunderground v.1.15,2013-01-12 21:22:00,
2013-01-12 16:23:00,56.5,49.7,29.91,NE,53,1.0,5.0,78,0.00,,,0.00,Wunderground v.1.15,2013-01-12 21:23:00,
2013-01-12 16:25:00,56.4,49.6,29.91,SSW,194,1.0,5.0,78,0.00,,,0.00,Wunderground v.1.15,2013-01-12 21:25:00,
2013-01-12 16:27:00,56.3,49.5,29.91,SW,232,2.0,5.0,78,0.00,,,0.00,Wunderground v.1.15,2013-01-12 21:27:00,
2013-01-12 16:28:00,56.2,49.4,29.90,WSW,252,1.0,5.0,78,0.00,,,0.00,Wunderground v.1.15,2013-01-12 21:28:00,
2013-01-12 16:30:00,56.1,49.3,29.91,SW,236,0.0,1.0,78,0.00,,,0.00,Wunderground v.1.15,2013-01-12 21:30:00,
2013-01-12 16:32:00,56.0,49.6,29.91,SSW,201,0.0,1.0,79,0.00,,,0.00,Wunderground v.1.15,2013-01-12 21:32:00,
2013-01-12 16:34:00,55.8,49.4,29.91,SW,215,0.0,1.0,79,0.00,,,0.00,Wunderground v.1.15,2013-01-12 21:34:00,
2013-01-12 16:35:00,55.7,49.3,29.91,WSW,240,1.0,2.0,79,0.00,,,0.00,Wunderground v.1.15,2013-01-12 21:35:00,
2013-01-12 16:37:00,55.6,49.2,29.90,WSW,246,3.0,3.0,79,0.00,,,0.00,Wunderground v.1.15,2013-01-12 21:37:00,
2013-01-12 16:39:00,55.5,49.4,29.90,West,267,2.0,3.0,80,0.00,,,0.00,Wunderground v.1.15,2013-01-12 21:39:00,
2013-01-12 16:41:00,55.4,49.3,29.91,WSW,253,2.0,2.0,80,0.00,,,0.00,Wunderground v.1.15,2013-01-12 21:41:00,
2013-01-12 16:42:00,55.3,49.2,29.91,SE,125,0.0,3.0,80,0.00,,,0.00,Wunderground v.1.15,2013-01-12 21:42:00,
2013-01-12 16:44:00,55.3,49.2,29.91,WSW,239,0.0,3.0,80,0.00,,,0.00,Wunderground v.1.15,2013-01-12 21:44:00,
2013-01-12 16:46:00,55.1,49.0,29.91,WSW,241,0.0,3.0,80,0.00,,,0.00,Wunderground v.1.15,2013-01-12 21:46:00,
2013-01-12 16:47:00,55.1,49.0,29.91,SW,231,1.0,3.0,80,0.00,,,0.00,Wunderground v.1.15,2013-01-12 21:47:00,
2013-01-12 16:49:00,55.0,49.3,29.91,SW,231,1.0,3.0,81,0.00,,,0.00,Wunderground v.1.15,2013-01-12 21:49:00,
2013-01-12 16:51:00,54.9,49.2,29.91,WSW,239,1.0,2.0,81,0.00,,,0.00,Wunderground v.1.15,2013-01-12 21:51:00,
2013-01-12 16:52:00,54.8,49.1,29.91,SW,228,0.0,2.0,81,0.00,,,0.00,Wunderground v.1.15,2013-01-12 21:52:00,
2013-01-12 16:53:00,54.8,49.1,29.91,SW,229,0.0,2.0,81,0.00,,,0.00,Wunderground v.1.15,2013-01-12 21:53:00,
2013-01-12 16:54:00,54.8,49.1,29.91,SW,229,0.0,2.0,81,0.00,,,0.00,Wunderground v.1.15,2013-01-12 21:54:00,
2013-01-12 16:56:00,54.7,49.0,29.91,SW,232,0.0,2.0,81,0.00,,,0.00,Wunderground v.1.15,2013-01-12 21:56:00,
2013-01-12 16:57:00,54.6,48.9,29.91,WSW,243,0.0,2.0,81,0.00,,,0.00,Wunderground v.1.15,2013-01-12 21:57:00,
2013-01-12 16:58:00,54.6,48.9,29.91,WSW,243,0.0,2.0,81,0.00,,,0.00,Wunderground v.1.15,2013-01-12 21:58:00,
2013-01-12 16:59:00,54.6,48.9,29.91,WSW,243,0.0,2.0,81,0.00,,,0.00,Wunderground v.1.15,2013-01-12 21:59:00,
2013-01-12 17:01:00,54.5,48.8,29.91,WSW,248,0.0,1.0,81,0.00,,,0.00,Wunderground v.1.15,2013-01-12 22:01:00,
2013-01-12 17:03:00,54.4,49.0,29.92,WSW,252,1.0,3.0,82,0.00,,,0.00,Wunderground v.1.15,2013-01-12 22:03:00,
2013-01-12 17:04:00,54.3,48.9,29.92,WSW,252,0.0,3.0,82,0.00,,,0.00,Wunderground v.1.15,2013-01-12 22:04:00,
2013-01-12 17:06:00,54.3,48.9,29.92,West,260,1.0,3.0,82,0.00,,,0.00,Wunderground v.1.15,2013-01-12 22:06:00,
2013-01-12 17:08:00,54.2,48.8,29.92,WSW,255,0.0,3.0,82,0.00,,,0.00,Wunderground v.1.15,2013-01-12 22:08:00,
2013-01-12 17:10:00,54.2,48.8,29.93,WSW,255,0.0,1.0,82,0.00,,,0.00,Wunderground v.1.15,2013-01-12 22:10:00,
2013-01-12 17:11:00,54.1,48.7,29.93,WSW,249,1.0,4.0,82,0.00,,,0.00,Wunderground v.1.15,2013-01-12 22:11:00,
2013-01-12 17:13:00,54.1,48.7,29.93,WSW,248,0.0,4.0,82,0.00,,,0.00,Wunderground v.1.15,2013-01-12 22:13:00,
2013-01-12 17:14:00,54.1,48.7,29.93,WSW,248,0.0,4.0,82,0.00,,,0.00,Wunderground v.1.15,2013-01-12 22:14:00,
2013-01-12 17:15:00,54.0,48.6,29.92,WSW,246,0.0,4.0,82,0.00,,,0.00,Wunderground v.1.15,2013-01-12 22:15:00,
2013-01-12 17:16:00,54.0,48.6,29.93,WSW,246,0.0,4.0,82,0.00,,,0.00,Wunderground v.1.15,2013-01-12 22:16:00,
2013-01-12 17:19:00,53.9,48.9,29.92,SW,221,0.0,4.0,83,0.00,,,0.00,Wunderground v.1.15,2013-01-12 22:19:00,
2013-01-12 17:21:00,53.8,48.8,29.93,SW,229,0.0,0.0,83,0.00,,,0.00,Wunderground v.1.15,2013-01-12 22:21:00,
2013-01-12 17:24:00,53.7,48.7,29.93,WSW,255,0.0,1.0,83,0.00,,,0.00,Wunderground v.1.15,2013-01-12 22:24:00,
2013-01-12 17:26:00,53.6,48.6,29.93,SW,231,2.0,3.0,83,0.00,,,0.00,Wunderground v.1.15,2013-01-12 22:26:00,
2013-01-12 17:29:00,53.6,48.9,29.93,SW,236,1.0,3.0,84,0.00,,,0.00,Wunderground v.1.15,2013-01-12 22:29:00,
2013-01-12 17:31:00,53.6,48.9,29.93,West,262,1.0,1.0,84,0.00,,,0.00,Wunderground v.1.15,2013-01-12 22:31:00,
2013-01-12 17:34:00,53.5,48.8,29.93,WSW,238,0.0,2.0,84,0.00,,,0.00,Wunderground v.1.15,2013-01-12 22:34:00,
2013-01-12 17:36:00,53.5,48.8,29.93,WSW,257,0.0,2.0,84,0.00,,,0.00,Wunderground v.1.15,2013-01-12 22:36:00,
2013-01-12 17:39:00,53.4,48.7,29.94,SW,217,1.0,2.0,84,0.00,,,0.00,Wunderground v.1.15,2013-01-12 22:39:00,
2013-01-12 17:41:00,53.4,48.7,29.94,WSW,240,1.0,2.0,84,0.00,,,0.00,Wunderground v.1.15,2013-01-12 22:41:00,
2013-01-12 17:44:00,53.4,48.7,29.94,SW,233,0.0,2.0,84,0.00,,,0.00,Wunderground v.1.15,2013-01-12 22:44:00,
2013-01-12 17:45:00,53.4,48.7,29.94,West,260,1.0,2.0,84,0.00,,,0.00,Wunderground v.1.15,2013-01-12 22:45:00,
2013-01-12 17:46:00,53.4,48.7,29.94,WSW,256,0.0,2.0,84,0.00,,,0.00,Wunderground v.1.15,2013-01-12 22:46:00,
2013-01-12 17:47:00,53.4,48.7,29.94,WSW,256,0.0,2.0,84,0.00,,,0.00,Wunderground v.1.15,2013-01-12 22:47:00,
2013-01-12 17:49:00,53.4,48.7,29.93,WSW,256,0.0,2.0,84,0.00,,,0.00,Wunderground v.1.15,2013-01-12 22:49:00,
2013-01-12 17:50:00,53.4,48.7,29.93,WSW,256,1.0,1.0,84,0.00,,,0.00,Wunderground v.1.15,2013-01-12 22:50:00,
2013-01-12 17:51:00,53.3,48.6,29.93,WSW,255,3.0,3.0,84,0.00,,,0.00,Wunderground v.1.15,2013-01-12 22:51:00,
2013-01-12 17:52:00,53.4,49.0,29.93,WSW,239,0.0,4.0,85,0.00,,,0.00,Wunderground v.1.15,2013-01-12 22:52:00,
2013-01-12 17:54:00,53.4,49.0,29.93,West,270,0.0,4.0,85,0.00,,,0.00,Wunderground v.1.15,2013-01-12 22:54:00,
2013-01-12 17:55:00,53.4,49.0,29.93,West,270,0.0,4.0,85,0.00,,,0.00,Wunderground v.1.15,2013-01-12 22:55:00,
2013-01-12 17:56:00,53.4,49.0,29.92,SSE,166,0.0,4.0,85,0.00,,,0.00,Wunderground v.1.15,2013-01-12 22:56:00,
2013-01-12 17:57:00,53.4,49.0,29.92,WSW,239,2.0,4.0,85,0.00,,,0.00,Wunderground v.1.15,2013-01-12 22:57:00,
2013-01-12 17:59:00,53.3,48.9,29.92,South,170,0.0,4.0,85,0.00,,,0.00,Wunderground v.1.15,2013-01-12 22:59:00,
2013-01-12 18:00:00,53.3,48.9,29.92,WNW,287,0.0,1.0,85,0.00,,,0.00,Wunderground v.1.15,2013-01-12 23:00:00,
2013-01-12 18:01:00,53.3,48.9,29.92,WNW,285,0.0,1.0,85,0.00,,,0.00,Wunderground v.1.15,2013-01-12 23:01:00,
2013-01-12 18:02:00,53.3,48.9,29.92,WNW,285,0.0,1.0,85,0.00,,,0.00,Wunderground v.1.15,2013-01-12 23:02:00,
2013-01-12 18:04:00,53.2,48.8,29.92,WNW,284,0.0,1.0,85,0.00,,,0.00,Wunderground v.1.15,2013-01-12 23:04:00,
2013-01-12 18:05:00,53.2,48.8,29.92,SW,215,1.0,1.0,85,0.00,,,0.00,Wunderground v.1.15,2013-01-12 23:05:00,
2013-01-12 18:06:00,53.2,49.1,29.92,SW,215,0.0,1.0,86,0.00,,,0.00,Wunderground v.1.15,2013-01-12 23:06:00,
2013-01-12 18:07:00,53.1,49.0,29.91,SW,215,0.0,1.0,86,0.00,,,0.00,Wunderground v.1.15,2013-01-12 23:07:00,
2013-01-12 18:09:00,53.1,49.0,29.91,SW,215,0.0,1.0,86,0.00,,,0.00,Wunderground v.1.15,2013-01-12 23:09:00,
2013-01-12 18:10:00,53.1,49.0,29.91,SW,215,0.0,0.0,86,0.00,,,0.00,Wunderground v.1.15,2013-01-12 23:10:00,
2013-01-12 18:11:00,53.0,48.9,29.91,SW,215,0.0,0.0,86,0.00,,,0.00,Wunderground v.1.15,2013-01-12 23:11:00,
2013-01-12 18:12:00,52.9,48.8,29.91,SW,215,0.0,0.0,86,0.00,,,0.00,Wunderground v.1.15,2013-01-12 23:12:00,
2013-01-12 18:14:00,52.9,48.8,29.91,SW,215,0.0,0.0,86,0.00,,,0.00,Wunderground v.1.15,2013-01-12 23:14:00,
2013-01-12 18:15:00,52.9,48.8,29.91,SW,215,0.0,0.0,86,0.00,,,0.00,Wunderground v.1.15,2013-01-12 23:15:00,
2013-01-12 18:16:00,52.8,48.7,29.91,SW,215,0.0,0.0,86,0.00,,,0.00,Wunderground v.1.15,2013-01-12 23:16:00,
2013-01-12 18:17:00,52.8,48.7,29.91,SW,217,0.0,0.0,86,0.00,,,0.00,Wunderground v.1.15,2013-01-12 23:17:00,
2013-01-12 18:20:00,52.7,48.6,29.91,SW,217,0.0,0.0,86,0.00,,,0.00,Wunderground v.1.15,2013-01-12 23:20:00,
2013-01-12 18:21:00,52.7,48.9,29.92,SW,216,0.0,1.0,87,0.00,,,0.00,Wunderground v.1.15,2013-01-12 23:21:00,
2013-01-12 18:22:00,52.6,48.8,29.92,SW,215,0.0,1.0,87,0.00,,,0.00,Wunderground v.1.15,2013-01-12 23:22:00,
2013-01-12 18:25:00,52.6,48.8,29.92,SW,217,0.0,1.0,87,0.00,,,0.00,Wunderground v.1.15,2013-01-12 23:25:00,
2013-01-12 18:27:00,52.5,48.7,29.92,SW,217,0.0,1.0,87,0.00,,,0.00,Wunderground v.1.15,2013-01-12 23:27:00,
2013-01-12 18:28:00,52.5,48.7,29.92,SW,217,0.0,1.0,87,0.00,,,0.00,Wunderground v.1.15,2013-01-12 23:28:00,
2013-01-12 18:30:00,52.4,48.6,29.92,SW,217,0.0,0.0,87,0.00,,,0.00,Wunderground v.1.15,2013-01-12 23:30:00,
2013-01-12 18:32:00,52.3,48.5,29.92,SW,217,0.0,0.0,87,0.00,,,0.00,Wunderground v.1.15,2013-01-12 23:32:00,
2013-01-12 18:33:00,52.3,48.9,29.92,SW,217,0.0,0.0,88,0.00,,,0.00,Wunderground v.1.15,2013-01-12 23:33:00,
2013-01-12 18:35:00,52.3,48.9,29.92,SW,226,0.0,1.0,88,0.00,,,0.00,Wunderground v.1.15,2013-01-12 23:35:00,
2013-01-12 18:37:00,52.2,48.8,29.92,SW,226,0.0,1.0,88,0.00,,,0.00,Wunderground v.1.15,2013-01-12 23:37:00,
2013-01-12 18:38:00,52.2,48.8,29.92,SW,226,0.0,1.0,88,0.00,,,0.00,Wunderground v.1.15,2013-01-12 23:38:00,
2013-01-12 18:40:00,52.1,48.7,29.92,SW,227,0.0,0.0,88,0.00,,,0.00,Wunderground v.1.15,2013-01-12 23:40:00,
2013-01-12 18:41:00,52.1,48.7,29.92,SW,228,0.0,0.0,88,0.00,,,0.00,Wunderground v.1.15,2013-01-12 23:41:00,
2013-01-12 18:42:00,52.1,48.7,29.92,SW,227,0.0,0.0,88,0.00,,,0.00,Wunderground v.1.15,2013-01-12 23:42:00,
2013-01-12 18:43:00,52.0,48.6,29.92,SW,228,0.0,0.0,88,0.00,,,0.00,Wunderground v.1.15,2013-01-12 23:43:00,
2013-01-12 18:45:00,52.0,48.6,29.92,SW,226,0.0,0.0,88,0.00,,,0.00,Wunderground v.1.15,2013-01-12 23:45:00,
2013-01-12 18:46:00,52.0,48.6,29.92,SW,227,0.0,0.0,88,0.00,,,0.00,Wunderground v.1.15,2013-01-12 23:46:00,
2013-01-12 18:48:00,51.9,48.5,29.92,SW,226,0.0,0.0,88,0.00,,,0.00,Wunderground v.1.15,2013-01-12 23:48:00,
2013-01-12 18:50:00,51.8,48.4,29.92,SW,226,0.0,0.0,88,0.00,,,0.00,Wunderground v.1.15,2013-01-12 23:50:00,
2013-01-12 18:51:00,51.7,48.3,29.92,SW,226,0.0,0.0,88,0.00,,,0.00,Wunderground v.1.15,2013-01-12 23:51:00,
2013-01-12 18:53:00,51.7,48.6,29.92,SW,226,0.0,0.0,89,0.00,,,0.00,Wunderground v.1.15,2013-01-12 23:53:00,
2013-01-12 18:55:00,51.6,48.5,29.92,SW,226,0.0,0.0,89,0.00,,,0.00,Wunderground v.1.15,2013-01-12 23:55:00,
2013-01-12 18:56:00,51.6,48.5,29.92,SW,226,0.0,0.0,89,0.00,,,0.00,Wunderground v.1.15,2013-01-12 23:56:00,
2013-01-12 18:58:00,51.6,48.5,29.92,SW,226,0.0,0.0,89,0.00,,,0.00,Wunderground v.1.15,2013-01-12 23:58:00,
2013-01-12 19:01:00,51.5,48.4,29.92,SW,226,0.0,0.0,89,0.00,,,0.00,Wunderground v.1.15,2013-01-13 00:01:00,
2013-01-12 19:03:00,51.5,48.7,29.93,SW,228,0.0,0.0,90,0.00,,,0.00,Wunderground v.1.15,2013-01-13 00:03:00,
2013-01-12 19:06:00,51.6,48.8,29.93,WSW,243,0.0,0.0,90,0.00,,,0.00,Wunderground v.1.15,2013-01-13 00:06:00,
2013-01-12 19:08:00,51.6,48.8,29.93,WSW,243,0.0,0.0,90,0.00,,,0.00,Wunderground v.1.15,2013-01-13 00:08:00,
2013-01-12 19:11:00,51.7,48.9,29.93,WSW,243,0.0,0.0,90,0.00,,,0.00,Wunderground v.1.15,2013-01-13 00:11:00,
2013-01-12 19:13:00,51.7,48.9,29.93,WSW,243,0.0,0.0,90,0.00,,,0.00,Wunderground v.1.15,2013-01-13 00:13:00,
2013-01-12 19:16:00,51.7,48.9,29.93,SW,231,0.0,1.0,90,0.00,,,0.00,Wunderground v.1.15,2013-01-13 00:16:00,
2013-01-12 19:18:00,51.6,48.8,29.93,South,190,0.0,1.0,90,0.00,,,0.00,Wunderground v.1.15,2013-01-13 00:18:00,
2013-01-12 19:19:00,51.7,48.9,29.93,South,190,0.0,1.0,90,0.00,,,0.00,Wunderground v.1.15,2013-01-13 00:19:00,
2013-01-12 19:21:00,51.6,48.8,29.93,South,190,0.0,0.0,90,0.00,,,0.00,Wunderground v.1.15,2013-01-13 00:21:00,
2013-01-12 19:23:00,51.5,48.7,29.93,South,190,0.0,0.0,90,0.00,,,0.00,Wunderground v.1.15,2013-01-13 00:23:00,
2013-01-12 19:24:00,51.5,48.7,29.93,South,190,0.0,0.0,90,0.00,,,0.00,Wunderground v.1.15,2013-01-13 00:24:00,
2013-01-12 19:26:00,51.4,48.6,29.94,South,190,0.0,0.0,90,0.00,,,0.00,Wunderground v.1.15,2013-01-13 00:26:00,
2013-01-12 19:29:00,51.2,48.4,29.93,South,190,0.0,0.0,90,0.00,,,0.00,Wunderground v.1.15,2013-01-13 00:29:00,
2013-01-12 19:31:00,51.1,48.3,29.93,South,189,0.0,0.0,90,0.00,,,0.00,Wunderground v.1.15,2013-01-13 00:31:00,
2013-01-12 19:34:00,51.0,48.2,29.93,South,190,0.0,0.0,90,0.00,,,0.00,Wunderground v.1.15,2013-01-13 00:34:00,
2013-01-12 19:36:00,50.8,48.0,29.93,South,190,0.0,0.0,90,0.00,,,0.00,Wunderground v.1.15,2013-01-13 00:36:00,
2013-01-12 19:39:00,50.7,47.9,29.93,South,190,0.0,0.0,90,0.00,,,0.00,Wunderground v.1.15,2013-01-13 00:39:00,
2013-01-12 19:41:00,50.6,48.1,29.93,South,190,0.0,0.0,91,0.00,,,0.00,Wunderground v.1.15,2013-01-13 00:41:00,
2013-01-12 19:44:00,50.5,48.0,29.93,South,190,0.0,0.0,91,0.00,,,0.00,Wunderground v.1.15,2013-01-13 00:44:00,
2013-01-12 19:46:00,50.4,48.2,29.93,South,190,0.0,0.0,92,0.00,,,0.00,Wunderground v.1.15,2013-01-13 00:46:00,
2013-01-12 19:49:00,50.4,48.2,29.94,South,190,0.0,0.0,92,0.00,,,0.00,Wunderground v.1.15,2013-01-13 00:49:00,
2013-01-12 19:51:00,50.4,48.2,29.94,South,190,0.0,0.0,92,0.00,,,0.00,Wunderground v.1.15,2013-01-13 00:51:00,
2013-01-12 19:52:00,50.4,48.2,29.94,South,189,0.0,0.0,92,0.00,,,0.00,Wunderground v.1.15,2013-01-13 00:52:00,
2013-01-12 19:54:00,50.4,48.2,29.93,South,189,0.0,0.0,92,0.00,,,0.00,Wunderground v.1.15,2013-01-13 00:54:00,
2013-01-12 19:56:00,50.3,48.1,29.93,South,190,0.0,0.0,92,0.00,,,0.00,Wunderground v.1.15,2013-01-13 00:56:00,
2013-01-12 19:57:00,50.3,48.1,29.93,South,190,0.0,0.0,92,0.00,,,0.00,Wunderground v.1.15,2013-01-13 00:57:00,
2013-01-12 19:59:00,50.2,48.0,29.93,South,190,0.0,0.0,92,0.00,,,0.00,Wunderground v.1.15,2013-01-13 00:59:00,
2013-01-12 20:01:00,50.2,48.0,29.93,South,190,0.0,0.0,92,0.00,,,0.00,Wunderground v.1.15,2013-01-13 01:01:00,
2013-01-12 20:02:00,50.2,48.0,29.93,South,190,0.0,0.0,92,0.00,,,0.00,Wunderground v.1.15,2013-01-13 01:02:00,
2013-01-12 20:04:00,50.1,47.9,29.92,South,189,0.0,0.0,92,0.00,,,0.00,Wunderground v.1.15,2013-01-13 01:04:00,
2013-01-12 20:07:00,50.0,47.8,29.93,South,189,0.0,0.0,92,0.00,,,0.00,Wunderground v.1.15,2013-01-13 01:07:00,
2013-01-12 20:09:00,49.8,47.6,29.92,South,190,0.0,0.0,92,0.00,,,0.00,Wunderground v.1.15,2013-01-13 01:09:00,
2013-01-12 20:12:00,49.7,47.5,29.92,South,190,0.0,0.0,92,0.00,,,0.00,Wunderground v.1.15,2013-01-13 01:12:00,
2013-01-12 20:14:00,49.7,47.5,29.92,South,190,0.0,0.0,92,0.00,,,0.00,Wunderground v.1.15,2013-01-13 01:14:00,
2013-01-12 20:15:00,49.7,47.5,29.92,South,190,0.0,0.0,92,0.00,,,0.00,Wunderground v.1.15,2013-01-13 01:15:00,
2013-01-12 20:17:00,49.6,47.7,29.92,South,190,0.0,0.0,93,0.00,,,0.00,Wunderground v.1.15,2013-01-13 01:17:00,
2013-01-12 20:19:00,49.5,47.6,29.92,South,190,0.0,0.0,93,0.00,,,0.00,Wunderground v.1.15,2013-01-13 01:19:00,
2013-01-12 20:20:00,49.5,47.6,29.92,South,189,0.0,0.0,93,0.00,,,0.00,Wunderground v.1.15,2013-01-13 01:20:00,
2013-01-12 20:22:00,49.4,47.5,29.92,South,190,0.0,0.0,93,0.00,,,0.00,Wunderground v.1.15,2013-01-13 01:22:00,
2013-01-12 20:24:00,49.3,47.4,29.92,South,190,0.0,0.0,93,0.00,,,0.00,Wunderground v.1.15,2013-01-13 01:24:00,
2013-01-12 20:25:00,49.2,47.3,29.92,South,190,0.0,0.0,93,0.00,,,0.00,Wunderground v.1.15,2013-01-13 01:25:00,
2013-01-12 20:27:00,49.1,47.2,29.92,South,190,0.0,0.0,93,0.00,,,0.00,Wunderground v.1.15,2013-01-13 01:27:00,
2013-01-12 20:29:00,48.9,47.0,29.92,South,190,0.0,0.0,93,0.00,,,0.00,Wunderground v.1.15,2013-01-13 01:29:00,
2013-01-12 20:30:00,48.8,46.9,29.92,South,190,0.0,0.0,93,0.00,,,0.00,Wunderground v.1.15,2013-01-13 01:30:00,
2013-01-12 20:32:00,48.6,46.7,29.92,South,190,0.0,0.0,93,0.00,,,0.00,Wunderground v.1.15,2013-01-13 01:32:00,
2013-01-12 20:35:00,48.4,46.5,29.92,South,189,0.0,0.0,93,0.00,,,0.00,Wunderground v.1.15,2013-01-13 01:35:00,
2013-01-12 20:37:00,48.4,46.5,29.92,South,190,0.0,0.0,93,0.00,,,0.00,Wunderground v.1.15,2013-01-13 01:37:00,
2013-01-12 20:38:00,48.4,46.5,29.92,South,190,0.0,0.0,93,0.00,,,0.00,Wunderground v.1.15,2013-01-13 01:38:00,
2013-01-12 20:40:00,48.4,46.5,29.92,South,189,0.0,0.0,93,0.00,,,0.00,Wunderground v.1.15,2013-01-13 01:40:00,
2013-01-12 20:42:00,48.4,46.5,29.92,South,190,0.0,0.0,93,0.00,,,0.00,Wunderground v.1.15,2013-01-13 01:42:00,
2013-01-12 20:43:00,48.4,46.5,29.92,South,190,0.0,0.0,93,0.00,,,0.00,Wunderground v.1.15,2013-01-13 01:43:00,
2013-01-12 20:45:00,48.4,46.8,29.93,South,190,0.0,0.0,94,0.00,,,0.00,Wunderground v.1.15,2013-01-13 01:45:00,
2013-01-12 20:47:00,48.3,46.7,29.93,South,189,0.0,0.0,94,0.00,,,0.00,Wunderground v.1.15,2013-01-13 01:47:00,
2013-01-12 20:48:00,48.3,46.7,29.93,South,189,0.0,0.0,94,0.00,,,0.00,Wunderground v.1.15,2013-01-13 01:48:00,
2013-01-12 20:50:00,48.4,46.8,29.93,South,190,0.0,0.0,94,0.00,,,0.00,Wunderground v.1.15,2013-01-13 01:50:00,
2013-01-12 20:53:00,48.6,47.2,29.93,South,190,0.0,0.0,95,0.00,,,0.00,Wunderground v.1.15,2013-01-13 01:53:00,
2013-01-12 20:55:00,48.6,47.2,29.93,South,190,0.0,0.0,95,0.00,,,0.00,Wunderground v.1.15,2013-01-13 01:55:00,
2013-01-12 20:56:00,48.6,47.2,29.93,South,190,0.0,0.0,95,0.00,,,0.00,Wunderground v.1.15,2013-01-13 01:56:00,
2013-01-12 20:58:00,48.6,47.0,29.93,South,190,0.0,0.0,94,0.00,,,0.00,Wunderground v.1.15,2013-01-13 01:58:00,
2013-01-12 21:01:00,48.4,46.8,29.93,South,190,0.0,0.0,94,0.00,,,0.00,Wunderground v.1.15,2013-01-13 02:01:00,
2013-01-12 21:03:00,48.3,46.7,29.93,South,190,0.0,0.0,94,0.00,,,0.00,Wunderground v.1.15,2013-01-13 02:03:00,
2013-01-12 21:06:00,48.1,46.5,29.93,South,190,0.0,0.0,94,0.00,,,0.00,Wunderground v.1.15,2013-01-13 02:06:00,
2013-01-12 21:08:00,48.1,46.5,29.93,South,189,0.0,0.0,94,0.00,,,0.00,Wunderground v.1.15,2013-01-13 02:08:00,
2013-01-12 21:11:00,48.1,46.7,29.92,South,190,0.0,0.0,95,0.00,,,0.00,Wunderground v.1.15,2013-01-13 02:11:00,
2013-01-12 21:13:00,48.1,46.7,29.92,South,190,0.0,0.0,95,0.00,,,0.00,Wunderground v.1.15,2013-01-13 02:13:00,
2013-01-12 21:16:00,48.0,46.6,29.92,South,190,0.0,0.0,95,0.00,,,0.00,Wunderground v.1.15,2013-01-13 02:16:00,
2013-01-12 21:18:00,47.9,46.3,29.92,South,190,0.0,0.0,94,0.00,,,0.00,Wunderground v.1.15,2013-01-13 02:18:00,
2013-01-12 21:21:00,47.5,45.9,29.93,South,190,0.0,0.0,94,0.00,,,0.00,Wunderground v.1.15,2013-01-13 02:21:00,
2013-01-12 21:23:00,47.3,45.7,29.92,South,190,0.0,0.0,94,0.00,,,0.00,Wunderground v.1.15,2013-01-13 02:23:00,
2013-01-12 21:24:00,47.3,45.7,29.92,South,190,0.0,0.0,94,0.00,,,0.00,Wunderground v.1.15,2013-01-13 02:24:00,
2013-01-12 21:26:00,47.2,45.6,29.92,South,190,0.0,0.0,94,0.00,,,0.00,Wunderground v.1.15,2013-01-13 02:26:00,
2013-01-12 21:27:00,47.2,45.6,29.92,South,190,0.0,0.0,94,0.00,,,0.00,Wunderground v.1.15,2013-01-13 02:27:00,
2013-01-12 21:28:00,47.1,45.7,29.92,South,190,0.0,0.0,95,0.00,,,0.00,Wunderground v.1.15,2013-01-13 02:28:00,
2013-01-12 21:29:00,47.2,45.8,29.92,South,189,0.0,0.0,95,0.00,,,0.00,Wunderground v.1.15,2013-01-13 02:29:00,
2013-01-12 21:31:00,47.2,45.8,29.92,South,190,0.0,0.0,95,0.00,,,0.00,Wunderground v.1.15,2013-01-13 02:31:00,
2013-01-12 21:32:00,47.2,45.8,29.92,South,190,0.0,0.0,95,0.00,,,0.00,Wunderground v.1.15,2013-01-13 02:32:00,
2013-01-12 21:33:00,47.3,45.9,29.93,South,190,0.0,0.0,95,0.00,,,0.00,Wunderground v.1.15,2013-01-13 02:33:00,
2013-01-12 21:34:00,47.4,46.0,29.92,South,190,0.0,0.0,95,0.00,,,0.00,Wunderground v.1.15,2013-01-13 02:34:00,
2013-01-12 21:36:00,47.3,45.9,29.92,South,189,0.0,0.0,95,0.00,,,0.00,Wunderground v.1.15,2013-01-13 02:36:00,
2013-01-12 21:37:00,47.3,45.9,29.92,South,190,0.0,0.0,95,0.00,,,0.00,Wunderground v.1.15,2013-01-13 02:37:00,
2013-01-12 21:39:00,47.2,45.8,29.92,South,190,0.0,0.0,95,0.00,,,0.00,Wunderground v.1.15,2013-01-13 02:39:00,
2013-01-12 21:41:00,47.1,45.7,29.92,South,189,0.0,0.0,95,0.00,,,0.00,Wunderground v.1.15,2013-01-13 02:41:00,
2013-01-12 21:42:00,47.0,45.6,29.92,South,189,0.0,0.0,95,0.00,,,0.00,Wunderground v.1.15,2013-01-13 02:42:00,
2013-01-12 21:44:00,46.9,45.5,29.92,South,190,0.0,0.0,95,0.00,,,0.00,Wunderground v.1.15,2013-01-13 02:44:00,
2013-01-12 21:46:00,46.8,45.4,29.92,South,190,0.0,0.0,95,0.00,,,0.00,Wunderground v.1.15,2013-01-13 02:46:00,
2013-01-12 21:47:00,46.7,45.3,29.92,South,190,0.0,0.0,95,0.00,,,0.00,Wunderground v.1.15,2013-01-13 02:47:00,
2013-01-12 21:49:00,46.7,45.3,29.92,South,189,0.0,0.0,95,0.00,,,0.00,Wunderground v.1.15,2013-01-13 02:49:00,
2013-01-12 21:52:00,46.5,45.1,29.93,South,189,0.0,0.0,95,0.00,,,0.00,Wunderground v.1.15,2013-01-13 02:52:00,
2013-01-12 21:54:00,46.5,45.1,29.93,South,189,0.0,0.0,95,0.00,,,0.00,Wunderground v.1.15,2013-01-13 02:54:00,
2013-01-12 21:55:00,46.5,45.1,29.92,South,190,0.0,0.0,95,0.00,,,0.00,Wunderground v.1.15,2013-01-13 02:55:00,
2013-01-12 21:57:00,46.5,45.1,29.92,South,190,0.0,0.0,95,0.00,,,0.00,Wunderground v.1.15,2013-01-13 02:57:00,
2013-01-12 21:59:00,46.4,45.0,29.93,South,190,0.0,0.0,95,0.00,,,0.00,Wunderground v.1.15,2013-01-13 02:59:00,
2013-01-12 22:00:00,46.4,45.0,29.93,South,190,0.0,0.0,95,0.00,,,0.00,Wunderground v.1.15,2013-01-13 03:00:00,
2013-01-12 22:02:00,46.4,45.0,29.93,South,190,0.0,0.0,95,0.00,,,0.00,Wunderground v.1.15,2013-01-13 03:02:00,
2013-01-12 22:04:00,46.4,45.0,29.93,South,190,0.0,0.0,95,0.00,,,0.00,Wunderground v.1.15,2013-01-13 03:04:00,
2013-01-12 22:05:00,46.4,45.0,29.93,South,189,0.0,0.0,95,0.00,,,0.00,Wunderground v.1.15,2013-01-13 03:05:00,
2013-01-12 22:07:00,46.4,45.0,29.93,South,190,0.0,0.0,95,0.00,,,0.00,Wunderground v.1.15,2013-01-13 03:07:00,
2013-01-12 22:10:00,46.3,44.9,29.93,South,189,0.0,0.0,95,0.00,,,0.00,Wunderground v.1.15,2013-01-13 03:10:00,
2013-01-12 22:12:00,46.3,44.9,29.93,South,190,0.0,0.0,95,0.00,,,0.00,Wunderground v.1.15,2013-01-13 03:12:00,
2013-01-12 22:15:00,46.3,44.9,29.93,South,190,0.0,0.0,95,0.00,,,0.00,Wunderground v.1.15,2013-01-13 03:15:00,
2013-01-12 22:17:00,46.4,45.3,29.93,South,190,0.0,0.0,96,0.00,,,0.00,Wunderground v.1.15,2013-01-13 03:17:00,
2013-01-12 22:20:00,46.4,45.3,29.93,South,190,0.0,0.0,96,0.00,,,0.00,Wunderground v.1.15,2013-01-13 03:20:00,
2013-01-12 22:21:00,46.4,45.3,29.93,South,190,0.0,0.0,96,0.00,,,0.00,Wunderground v.1.15,2013-01-13 03:21:00,
2013-01-12 22:22:00,46.3,44.9,29.93,South,190,0.0,0.0,95,0.00,,,0.00,Wunderground v.1.15,2013-01-13 03:22:00,
2013-01-12 22:23:00,46.3,44.9,29.93,South,189,0.0,0.0,95,0.00,,,0.00,Wunderground v.1.15,2013-01-13 03:23:00,
2013-01-12 22:25:00,46.2,44.8,29.93,South,189,0.0,0.0,95,0.00,,,0.00,Wunderground v.1.15,2013-01-13 03:25:00,
2013-01-12 22:26:00,46.0,44.6,29.93,South,189,0.0,0.0,95,0.00,,,0.00,Wunderground v.1.15,2013-01-13 03:26:00,
2013-01-12 22:28:00,46.0,44.6,29.93,South,190,0.0,0.0,95,0.00,,,0.00,Wunderground v.1.15,2013-01-13 03:28:00,
2013-01-12 22:30:00,45.9,44.5,29.93,South,189,0.0,0.0,95,0.00,,,0.00,Wunderground v.1.15,2013-01-13 03:30:00,
2013-01-12 22:32:00,45.9,44.5,29.92,South,189,0.0,0.0,95,0.00,,,0.00,Wunderground v.1.15,2013-01-13 03:32:00,
2013-01-12 22:33:00,45.9,44.5,29.92,South,190,0.0,0.0,95,0.00,,,0.00,Wunderground v.1.15,2013-01-13 03:33:00,
2013-01-12 22:35:00,45.8,44.4,29.92,South,190,0.0,0.0,95,0.00,,,0.00,Wunderground v.1.15,2013-01-13 03:35:00,
2013-01-12 22:37:00,45.7,44.4,29.92,South,189,0.0,0.0,95,0.00,,,0.00,Wunderground v.1.15,2013-01-13 03:37:00,
2013-01-12 22:38:00,45.7,44.4,29.92,South,190,0.0,0.0,95,0.00,,,0.00,Wunderground v.1.15,2013-01-13 03:38:00,
2013-01-12 22:39:00,45.7,44.4,29.92,South,190,0.0,0.0,95,0.00,,,0.00,Wunderground v.1.15,2013-01-13 03:39:00,
2013-01-12 22:41:00,45.6,44.5,29.92,South,191,0.0,0.0,96,0.00,,,0.00,Wunderground v.1.15,2013-01-13 03:41:00,
2013-01-12 22:42:00,45.6,44.5,29.91,SSW,192,0.0,0.0,96,0.00,,,0.00,Wunderground v.1.15,2013-01-13 03:42:00,
2013-01-12 22:43:00,45.6,44.5,29.91,South,191,0.0,0.0,96,0.00,,,0.00,Wunderground v.1.15,2013-01-13 03:43:00,
2013-01-12 22:44:00,45.6,44.5,29.91,South,191,0.0,0.0,96,0.00,,,0.00,Wunderground v.1.15,2013-01-13 03:44:00,
2013-01-12 22:46:00,45.6,44.5,29.91,South,190,0.0,0.0,96,0.00,,,0.00,Wunderground v.1.15,2013-01-13 03:46:00,
2013-01-12 22:48:00,45.7,44.6,29.91,ESE,118,0.0,1.0,96,0.00,,,0.00,Wunderground v.1.15,2013-01-13 03:48:00,
2013-01-12 22:49:00,45.8,44.7,29.91,ESE,119,0.0,1.0,96,0.00,,,0.00,Wunderground v.1.15,2013-01-13 03:49:00,
2013-01-12 22:51:00,45.9,44.8,29.91,ESE,119,0.0,0.0,96,0.00,,,0.00,Wunderground v.1.15,2013-01-13 03:51:00,
2013-01-12 22:53:00,46.0,44.9,29.91,ESE,119,0.0,0.0,96,0.00,,,0.00,Wunderground v.1.15,2013-01-13 03:53:00,
2013-01-12 22:54:00,46.1,45.0,29.91,ESE,118,0.0,1.0,96,0.00,,,0.00,Wunderground v.1.15,2013-01-13 03:54:00,
2013-01-12 22:56:00,46.1,45.0,29.90,ESE,118,0.0,1.0,96,0.00,,,0.00,Wunderground v.1.15,2013-01-13 03:56:00,
2013-01-12 22:58:00,46.1,45.0,29.90,ESE,119,0.0,1.0,96,0.00,,,0.00,Wunderground v.1.15,2013-01-13 03:58:00,
2013-01-12 22:59:00,46.2,45.1,29.90,ESE,119,0.0,1.0,96,0.00,,,0.00,Wunderground v.1.15,2013-01-13 03:59:00,
2013-01-12 23:01:00,46.2,45.1,29.90,ESE,119,0.0,0.0,96,0.00,,,0.00,Wunderground v.1.15,2013-01-13 04:01:00,
2013-01-12 23:03:00,46.2,45.1,29.90,ESE,119,0.0,1.0,96,0.00,,,0.00,Wunderground v.1.15,2013-01-13 04:03:00,
2013-01-12 23:04:00,46.1,45.0,29.90,ESE,119,0.0,1.0,96,0.00,,,0.00,Wunderground v.1.15,2013-01-13 04:04:00,
2013-01-12 23:06:00,46.1,45.0,29.90,ESE,119,0.0,1.0,96,0.00,,,0.00,Wunderground v.1.15,2013-01-13 04:06:00,
2013-01-12 23:08:00,46.1,45.0,29.90,ESE,119,0.0,1.0,96,0.00,,,0.00,Wunderground v.1.15,2013-01-13 04:08:00,
2013-01-12 23:10:00,46.1,45.0,29.90,ESE,119,0.0,0.0,96,0.00,,,0.00,Wunderground v.1.15,2013-01-13 04:10:00,
2013-01-12 23:11:00,46.2,45.1,29.89,ESE,118,0.0,1.0,96,0.00,,,0.00,Wunderground v.1.15,2013-01-13 04:11:00,
2013-01-12 23:13:00,46.2,45.1,29.89,NNE,30,0.0,2.0,96,0.00,,,0.00,Wunderground v.1.15,2013-01-13 04:13:00,
2013-01-12 23:14:00,46.2,45.1,29.89,NNE,30,0.0,2.0,96,0.00,,,0.00,Wunderground v.1.15,2013-01-13 04:14:00,
2013-01-12 23:15:00,46.2,45.1,29.89,NNW,344,0.0,2.0,96,0.00,,,0.00,Wunderground v.1.15,2013-01-13 04:15:00,
2013-01-12 23:16:00,46.3,45.2,29.89,NNW,347,0.0,2.0,96,0.00,,,0.00,Wunderground v.1.15,2013-01-13 04:16:00,
2013-01-12 23:18:00,46.3,45.2,29.89,NNW,347,0.0,2.0,96,0.00,,,0.00,Wunderground v.1.15,2013-01-13 04:18:00,
2013-01-12 23:19:00,46.3,45.2,29.89,NNW,347,0.0,2.0,96,0.00,,,0.00,Wunderground v.1.15,2013-01-13 04:19:00,
2013-01-12 23:20:00,46.3,45.2,29.89,North,349,0.0,1.0,96,0.00,,,0.00,Wunderground v.1.15,2013-01-13 04:20:00,
2013-01-12 23:21:00,46.3,45.2,29.90,NNW,348,0.0,1.0,96,0.00,,,0.00,Wunderground v.1.15,2013-01-13 04:21:00,
2013-01-12 23:23:00,46.3,45.2,29.90,North,8,0.0,1.0,96,0.00,,,0.00,Wunderground v.1.15,2013-01-13 04:23:00,
2013-01-12 23:24:00,46.3,44.9,29.90,North,9,0.0,1.0,95,0.00,,,0.00,Wunderground v.1.15,2013-01-13 04:24:00,
2013-01-12 23:25:00,46.3,44.9,29.90,North,8,0.0,1.0,95,0.00,,,0.00,Wunderground v.1.15,2013-01-13 04:25:00,
2013-01-12 23:26:00,46.3,44.9,29.90,North,8,0.0,1.0,95,0.00,,,0.00,Wunderground v.1.15,2013-01-13 04:26:00,
2013-01-12 23:28:00,46.4,45.0,29.91,North,9,0.0,1.0,95,0.00,,,0.00,Wunderground v.1.15,2013-01-13 04:28:00,
2013-01-12 23:29:00,46.4,45.0,29.91,North,8,0.0,1.0,95,0.00,,,0.00,Wunderground v.1.15,2013-01-13 04:29:00,
2013-01-12 23:30:00,46.4,45.0,29.91,North,8,0.0,0.0,95,0.00,,,0.00,Wunderground v.1.15,2013-01-13 04:30:00,
2013-01-12 23:31:00,46.4,45.0,29.91,North,9,0.0,0.0,95,0.00,,,0.00,Wunderground v.1.15,2013-01-13 04:31:00,
2013-01-12 23:33:00,46.4,45.0,29.91,NE,39,0.0,0.0,95,0.00,,,0.00,Wunderground v.1.15,2013-01-13 04:33:00,
2013-01-12 23:35:00,46.4,45.0,29.91,NE,39,0.0,0.0,95,0.00,,,0.00,Wunderground v.1.15,2013-01-13 04:35:00,
2013-01-12 23:36:00,46.4,45.0,29.91,NE,39,0.0,0.0,95,0.00,,,0.00,Wunderground v.1.15,2013-01-13 04:36:00,
2013-01-12 23:38:00,46.4,44.8,29.91,NE,35,0.0,1.0,94,0.00,,,0.00,Wunderground v.1.15,2013-01-13 04:38:00,
2013-01-12 23:40:00,46.3,44.7,29.91,NE,35,1.0,1.0,94,0.00,,,0.00,Wunderground v.1.15,2013-01-13 04:40:00,
2013-01-12 23:42:00,46.3,44.7,29.91,NE,36,0.0,1.0,94,0.00,,,0.00,Wunderground v.1.15,2013-01-13 04:42:00,
2013-01-12 23:44:00,46.2,44.6,29.91,NE,37,0.0,1.0,94,0.00,,,0.00,Wunderground v.1.15,2013-01-13 04:44:00,
2013-01-12 23:45:00,46.2,44.6,29.91,NE,37,0.0,1.0,94,0.00,,,0.00,Wunderground v.1.15,2013-01-13 04:45:00,
2013-01-12 23:47:00,46.1,44.5,29.91,ESE,103,0.0,1.0,94,0.00,,,0.00,Wunderground v.1.15,2013-01-13 04:47:00,
2013-01-12 23:49:00,46.1,44.2,29.91,ESE,103,0.0,1.0,93,0.00,,,0.00,Wunderground v.1.15,2013-01-13 04:49:00,
2013-01-12 23:51:00,46.1,44.2,29.91,ESE,103,0.0,0.0,93,0.00,,,0.00,Wunderground v.1.15,2013-01-13 04:51:00,
2013-01-12 23:52:00,46.1,44.2,29.91,NE,39,0.0,0.0,93,0.00,,,0.00,Wunderground v.1.15,2013-01-13 04:52:00,
2013-01-12 23:54:00,46.0,43.8,29.90,North,6,0.0,0.0,92,0.00,,,0.00,Wunderground v.1.15,2013-01-13 04:54:00,
2013-01-12 23:56:00,45.9,43.4,29.90,NW,323,1.0,2.0,91,0.00,,,0.00,Wunderground v.1.15,2013-01-13 04:56:00,
2013-01-12 23:57:00,45.9,43.4,29.90,NNW,346,1.0,2.0,91,0.00,,,0.00,Wunderground v.1.15,2013-01-13 04:57:00,
2013-01-12 23:59:00,45.8,43.0,29.90,NNW,340,1.0,2.0,90,0.00,,,0.00,Wunderground v.1.15,2013-01-13 04:59:00,